
<gpx xmlns="http://www.topografix.com/GPX/1/1" xmlns:gpxx="http://www.garmin.com/xmlschemas/GpxExtensions/v3" xmlns:wptx1="http://www.garmin.com/xmlschemas/WaypointExtension/v1" xmlns:xsi="http://www.w3.org/2001/XMLSchema-instance" version="1.1" creator="Adze - https://getadze.com/" xsi:schemaLocation="http://www.topografix.com/GPX/1/1 http://www.topografix.com/GPX/1/1/gpx.xsd http://www.garmin.com/xmlschemas/GpxExtensions/v3 http://www8.garmin.com/xmlschemas/GpxExtensionsv3.xsd http://www.garmin.com/xmlschemas/WaypointExtension/v1 http://www8.garmin.com/xmlschemas/WaypointExtensionv1.xsd">
    <metadata>
        <name>Untitled Document</name>
        <link href="http://www.garmin.com"></link>
        <time>2018-03-06T08:17:31.842Z</time>
    </metadata>
    <wpt lon="101.247048" lat="14.541249">
        <ele>353.000000</ele>
        <name>Cabbages &amp; Condoms</name>
        <cmt>15-DEC-07 11:05:17</cmt>
        <desc>15-DEC-07 11:05:17</desc>
        <sym>City Hall</sym>
        <type>user</type>
        <extensions>
            <gpxx:WaypointExtension>
                <gpxx:DisplayMode>SymbolAndName</gpxx:DisplayMode>
            </gpxx:WaypointExtension>
            <wptx1:WaypointExtension>
                <wptx1:DisplayMode>SymbolAndName</wptx1:DisplayMode>
            </wptx1:WaypointExtension>
        </extensions>
    </wpt>
    <trk>
        <name>December 2007 - Sunday</name>
        <extensions>
            <gpxx:TrackExtension>
                <gpxx:DisplayColor>Green</gpxx:DisplayColor>
            </gpxx:TrackExtension>
        </extensions>
        <trkseg>
            <trkpt lon="101.246334" lat="14.540851">
                <ele>310.643066</ele>
                <time>2007-12-16T02:56:24Z</time>
            </trkpt>
            <trkpt lon="101.246296" lat="14.540772">
                <ele>311.123779</ele>
                <time>2007-12-16T02:56:29Z</time>
            </trkpt>
            <trkpt lon="101.246240" lat="14.540785">
                <ele>314.488403</ele>
                <time>2007-12-16T02:56:35Z</time>
            </trkpt>
            <trkpt lon="101.246232" lat="14.540783">
                <ele>316.411011</ele>
                <time>2007-12-16T02:56:36Z</time>
            </trkpt>
            <trkpt lon="101.246128" lat="14.540768">
                <ele>320.256348</ele>
                <time>2007-12-16T02:56:40Z</time>
            </trkpt>
            <trkpt lon="101.246044" lat="14.540746">
                <ele>321.698364</ele>
                <time>2007-12-16T02:56:42Z</time>
            </trkpt>
            <trkpt lon="101.245749" lat="14.540600">
                <ele>320.256348</ele>
                <time>2007-12-16T02:56:47Z</time>
            </trkpt>
            <trkpt lon="101.245607" lat="14.540532">
                <ele>319.775635</ele>
                <time>2007-12-16T02:56:49Z</time>
            </trkpt>
            <trkpt lon="101.245375" lat="14.540428">
                <ele>322.178955</ele>
                <time>2007-12-16T02:56:53Z</time>
            </trkpt>
            <trkpt lon="101.245223" lat="14.540456">
                <ele>324.101562</ele>
                <time>2007-12-16T02:56:57Z</time>
            </trkpt>
            <trkpt lon="101.245190" lat="14.540621">
                <ele>327.946777</ele>
                <time>2007-12-16T02:57:01Z</time>
            </trkpt>
            <trkpt lon="101.245164" lat="14.540715">
                <ele>324.582275</ele>
                <time>2007-12-16T02:57:03Z</time>
            </trkpt>
            <trkpt lon="101.245146" lat="14.540766">
                <ele>324.582275</ele>
                <time>2007-12-16T02:57:04Z</time>
            </trkpt>
            <trkpt lon="101.244603" lat="14.541651">
                <ele>322.178955</ele>
                <time>2007-12-16T02:57:21Z</time>
            </trkpt>
            <trkpt lon="101.244139" lat="14.542181">
                <ele>322.178955</ele>
                <time>2007-12-16T02:57:30Z</time>
            </trkpt>
            <trkpt lon="101.244004" lat="14.542454">
                <ele>323.140381</ele>
                <time>2007-12-16T02:57:34Z</time>
            </trkpt>
            <trkpt lon="101.243769" lat="14.542648">
                <ele>324.101562</ele>
                <time>2007-12-16T02:57:39Z</time>
            </trkpt>
            <trkpt lon="101.243707" lat="14.542663">
                <ele>324.101562</ele>
                <time>2007-12-16T02:57:40Z</time>
            </trkpt>
            <trkpt lon="101.243383" lat="14.542685">
                <ele>324.101562</ele>
                <time>2007-12-16T02:57:45Z</time>
            </trkpt>
            <trkpt lon="101.243206" lat="14.542671">
                <ele>325.543579</ele>
                <time>2007-12-16T02:57:48Z</time>
            </trkpt>
            <trkpt lon="101.242958" lat="14.542659">
                <ele>327.946777</ele>
                <time>2007-12-16T02:57:53Z</time>
            </trkpt>
            <trkpt lon="101.242837" lat="14.542665">
                <ele>329.869507</ele>
                <time>2007-12-16T02:57:56Z</time>
            </trkpt>
            <trkpt lon="101.242505" lat="14.542691">
                <ele>331.792114</ele>
                <time>2007-12-16T02:58:05Z</time>
            </trkpt>
            <trkpt lon="101.242359" lat="14.542739">
                <ele>331.311523</ele>
                <time>2007-12-16T02:58:09Z</time>
            </trkpt>
            <trkpt lon="101.242063" lat="14.542991">
                <ele>331.792114</ele>
                <time>2007-12-16T02:58:18Z</time>
            </trkpt>
            <trkpt lon="101.241705" lat="14.543373">
                <ele>331.792114</ele>
                <time>2007-12-16T02:58:28Z</time>
            </trkpt>
            <trkpt lon="101.241445" lat="14.543781">
                <ele>333.234131</ele>
                <time>2007-12-16T02:58:37Z</time>
            </trkpt>
            <trkpt lon="101.241409" lat="14.543882">
                <ele>333.234131</ele>
                <time>2007-12-16T02:58:39Z</time>
            </trkpt>
            <trkpt lon="101.241324" lat="14.544342">
                <ele>328.427612</ele>
                <time>2007-12-16T02:58:46Z</time>
            </trkpt>
            <trkpt lon="101.241202" lat="14.544691">
                <ele>325.543579</ele>
                <time>2007-12-16T02:58:50Z</time>
            </trkpt>
            <trkpt lon="101.241040" lat="14.544971">
                <ele>320.737061</ele>
                <time>2007-12-16T02:58:53Z</time>
            </trkpt>
            <trkpt lon="101.240862" lat="14.545255">
                <ele>316.411011</ele>
                <time>2007-12-16T02:58:56Z</time>
            </trkpt>
            <trkpt lon="101.240485" lat="14.545847">
                <ele>317.372437</ele>
                <time>2007-12-16T02:59:03Z</time>
            </trkpt>
            <trkpt lon="101.240218" lat="14.546354">
                <ele>318.814331</ele>
                <time>2007-12-16T02:59:10Z</time>
            </trkpt>
            <trkpt lon="101.240166" lat="14.546484">
                <ele>319.295044</ele>
                <time>2007-12-16T02:59:12Z</time>
            </trkpt>
            <trkpt lon="101.240090" lat="14.546923">
                <ele>315.930420</ele>
                <time>2007-12-16T02:59:18Z</time>
            </trkpt>
            <trkpt lon="101.240098" lat="14.547096">
                <ele>314.007812</ele>
                <time>2007-12-16T02:59:20Z</time>
            </trkpt>
            <trkpt lon="101.240150" lat="14.547763">
                <ele>313.527222</ele>
                <time>2007-12-16T02:59:28Z</time>
            </trkpt>
            <trkpt lon="101.240073" lat="14.548471">
                <ele>312.565796</ele>
                <time>2007-12-16T02:59:37Z</time>
            </trkpt>
            <trkpt lon="101.240001" lat="14.548942">
                <ele>312.085205</ele>
                <time>2007-12-16T02:59:43Z</time>
            </trkpt>
            <trkpt lon="101.239912" lat="14.549149">
                <ele>311.604492</ele>
                <time>2007-12-16T02:59:46Z</time>
            </trkpt>
            <trkpt lon="101.239645" lat="14.549376">
                <ele>311.123779</ele>
                <time>2007-12-16T02:59:51Z</time>
            </trkpt>
            <trkpt lon="101.239031" lat="14.549662">
                <ele>310.162476</ele>
                <time>2007-12-16T03:00:00Z</time>
            </trkpt>
            <trkpt lon="101.238496" lat="14.550129">
                <ele>309.201172</ele>
                <time>2007-12-16T03:00:09Z</time>
            </trkpt>
            <trkpt lon="101.238093" lat="14.550540">
                <ele>308.720459</ele>
                <time>2007-12-16T03:00:16Z</time>
            </trkpt>
            <trkpt lon="101.237907" lat="14.550735">
                <ele>307.278564</ele>
                <time>2007-12-16T03:00:19Z</time>
            </trkpt>
            <trkpt lon="101.237312" lat="14.551288">
                <ele>306.317261</ele>
                <time>2007-12-16T03:00:28Z</time>
            </trkpt>
            <trkpt lon="101.236949" lat="14.551509">
                <ele>306.317261</ele>
                <time>2007-12-16T03:00:33Z</time>
            </trkpt>
            <trkpt lon="101.236732" lat="14.551727">
                <ele>306.317261</ele>
                <time>2007-12-16T03:00:37Z</time>
            </trkpt>
            <trkpt lon="101.236452" lat="14.552140">
                <ele>304.875244</ele>
                <time>2007-12-16T03:00:43Z</time>
            </trkpt>
            <trkpt lon="101.235844" lat="14.552885">
                <ele>301.991333</ele>
                <time>2007-12-16T03:00:54Z</time>
            </trkpt>
            <trkpt lon="101.235513" lat="14.553253">
                <ele>301.510620</ele>
                <time>2007-12-16T03:01:00Z</time>
            </trkpt>
            <trkpt lon="101.235320" lat="14.553640">
                <ele>301.029907</ele>
                <time>2007-12-16T03:01:05Z</time>
            </trkpt>
            <trkpt lon="101.234925" lat="14.554321">
                <ele>299.588013</ele>
                <time>2007-12-16T03:01:14Z</time>
            </trkpt>
            <trkpt lon="101.234531" lat="14.554795">
                <ele>298.146118</ele>
                <time>2007-12-16T03:01:21Z</time>
            </trkpt>
            <trkpt lon="101.234402" lat="14.555028">
                <ele>297.665405</ele>
                <time>2007-12-16T03:01:24Z</time>
            </trkpt>
            <trkpt lon="101.234170" lat="14.555748">
                <ele>297.184692</ele>
                <time>2007-12-16T03:01:33Z</time>
            </trkpt>
            <trkpt lon="101.234073" lat="14.556131">
                <ele>298.626709</ele>
                <time>2007-12-16T03:01:39Z</time>
            </trkpt>
            <trkpt lon="101.234009" lat="14.556317">
                <ele>301.029907</ele>
                <time>2007-12-16T03:01:43Z</time>
            </trkpt>
            <trkpt lon="101.233952" lat="14.556430">
                <ele>302.471924</ele>
                <time>2007-12-16T03:01:46Z</time>
            </trkpt>
            <trkpt lon="101.233879" lat="14.556568">
                <ele>303.913940</ele>
                <time>2007-12-16T03:01:50Z</time>
            </trkpt>
            <trkpt lon="101.233693" lat="14.556928">
                <ele>305.836670</ele>
                <time>2007-12-16T03:02:01Z</time>
            </trkpt>
            <trkpt lon="101.233570" lat="14.557253">
                <ele>304.394653</ele>
                <time>2007-12-16T03:02:08Z</time>
            </trkpt>
            <trkpt lon="101.233450" lat="14.557529">
                <ele>301.510620</ele>
                <time>2007-12-16T03:02:12Z</time>
            </trkpt>
            <trkpt lon="101.233176" lat="14.558152">
                <ele>298.146118</ele>
                <time>2007-12-16T03:02:20Z</time>
            </trkpt>
            <trkpt lon="101.232971" lat="14.558613">
                <ele>294.781372</ele>
                <time>2007-12-16T03:02:25Z</time>
            </trkpt>
            <trkpt lon="101.232815" lat="14.558905">
                <ele>291.897461</ele>
                <time>2007-12-16T03:02:28Z</time>
            </trkpt>
            <trkpt lon="101.232696" lat="14.559099">
                <ele>290.936157</ele>
                <time>2007-12-16T03:02:30Z</time>
            </trkpt>
            <trkpt lon="101.232361" lat="14.559540">
                <ele>288.052246</ele>
                <time>2007-12-16T03:02:35Z</time>
            </trkpt>
            <trkpt lon="101.232220" lat="14.559899">
                <ele>287.571411</ele>
                <time>2007-12-16T03:02:39Z</time>
            </trkpt>
            <trkpt lon="101.232220" lat="14.559986">
                <ele>287.571411</ele>
                <time>2007-12-16T03:02:40Z</time>
            </trkpt>
            <trkpt lon="101.232233" lat="14.560148">
                <ele>287.571411</ele>
                <time>2007-12-16T03:02:42Z</time>
            </trkpt>
            <trkpt lon="101.232088" lat="14.560386">
                <ele>288.052246</ele>
                <time>2007-12-16T03:02:46Z</time>
            </trkpt>
            <trkpt lon="101.231374" lat="14.560832">
                <ele>288.532959</ele>
                <time>2007-12-16T03:02:57Z</time>
            </trkpt>
            <trkpt lon="101.230810" lat="14.561319">
                <ele>288.052246</ele>
                <time>2007-12-16T03:03:07Z</time>
            </trkpt>
            <trkpt lon="101.230705" lat="14.561424">
                <ele>287.090820</ele>
                <time>2007-12-16T03:03:09Z</time>
            </trkpt>
            <trkpt lon="101.230512" lat="14.561716">
                <ele>286.610229</ele>
                <time>2007-12-16T03:03:14Z</time>
            </trkpt>
            <trkpt lon="101.230393" lat="14.562124">
                <ele>286.129517</ele>
                <time>2007-12-16T03:03:20Z</time>
            </trkpt>
            <trkpt lon="101.230279" lat="14.562748">
                <ele>286.129517</ele>
                <time>2007-12-16T03:03:29Z</time>
            </trkpt>
            <trkpt lon="101.230307" lat="14.562965">
                <ele>285.168213</ele>
                <time>2007-12-16T03:03:32Z</time>
            </trkpt>
            <trkpt lon="101.230573" lat="14.563712">
                <ele>283.245605</ele>
                <time>2007-12-16T03:03:42Z</time>
            </trkpt>
            <trkpt lon="101.230864" lat="14.564226">
                <ele>280.361694</ele>
                <time>2007-12-16T03:03:49Z</time>
            </trkpt>
            <trkpt lon="101.231038" lat="14.564445">
                <ele>278.919678</ele>
                <time>2007-12-16T03:03:52Z</time>
            </trkpt>
            <trkpt lon="101.231315" lat="14.564902">
                <ele>278.438965</ele>
                <time>2007-12-16T03:03:58Z</time>
            </trkpt>
            <trkpt lon="101.231396" lat="14.565130">
                <ele>277.477661</ele>
                <time>2007-12-16T03:04:01Z</time>
            </trkpt>
            <trkpt lon="101.231389" lat="14.565638">
                <ele>277.958252</ele>
                <time>2007-12-16T03:04:08Z</time>
            </trkpt>
            <trkpt lon="101.231285" lat="14.566270">
                <ele>276.516357</ele>
                <time>2007-12-16T03:04:17Z</time>
            </trkpt>
            <trkpt lon="101.231276" lat="14.566343">
                <ele>276.997070</ele>
                <time>2007-12-16T03:04:18Z</time>
            </trkpt>
            <trkpt lon="101.231343" lat="14.566699">
                <ele>276.516357</ele>
                <time>2007-12-16T03:04:23Z</time>
            </trkpt>
            <trkpt lon="101.231382" lat="14.566760">
                <ele>276.516357</ele>
                <time>2007-12-16T03:04:24Z</time>
            </trkpt>
            <trkpt lon="101.231508" lat="14.566931">
                <ele>276.997070</ele>
                <time>2007-12-16T03:04:27Z</time>
            </trkpt>
            <trkpt lon="101.231617" lat="14.567306">
                <ele>276.997070</ele>
                <time>2007-12-16T03:04:33Z</time>
            </trkpt>
            <trkpt lon="101.231731" lat="14.567940">
                <ele>275.555054</ele>
                <time>2007-12-16T03:04:42Z</time>
            </trkpt>
            <trkpt lon="101.231833" lat="14.568231">
                <ele>275.555054</ele>
                <time>2007-12-16T03:04:46Z</time>
            </trkpt>
            <trkpt lon="101.232207" lat="14.568640">
                <ele>273.632446</ele>
                <time>2007-12-16T03:04:53Z</time>
            </trkpt>
            <trkpt lon="101.232445" lat="14.568828">
                <ele>273.632446</ele>
                <time>2007-12-16T03:04:57Z</time>
            </trkpt>
            <trkpt lon="101.232585" lat="14.569100">
                <ele>275.555054</ele>
                <time>2007-12-16T03:05:02Z</time>
            </trkpt>
            <trkpt lon="101.232534" lat="14.569372">
                <ele>278.919678</ele>
                <time>2007-12-16T03:05:08Z</time>
            </trkpt>
            <trkpt lon="101.232329" lat="14.569639">
                <ele>279.400269</ele>
                <time>2007-12-16T03:05:16Z</time>
            </trkpt>
            <trkpt lon="101.231958" lat="14.569882">
                <ele>278.438965</ele>
                <time>2007-12-16T03:05:24Z</time>
            </trkpt>
            <trkpt lon="101.231781" lat="14.569988">
                <ele>276.997070</ele>
                <time>2007-12-16T03:05:27Z</time>
            </trkpt>
            <trkpt lon="101.231380" lat="14.570233">
                <ele>273.632446</ele>
                <time>2007-12-16T03:05:33Z</time>
            </trkpt>
            <trkpt lon="101.231183" lat="14.570402">
                <ele>272.190430</ele>
                <time>2007-12-16T03:05:36Z</time>
            </trkpt>
            <trkpt lon="101.231012" lat="14.570697">
                <ele>272.190430</ele>
                <time>2007-12-16T03:05:40Z</time>
            </trkpt>
            <trkpt lon="101.230961" lat="14.570848">
                <ele>273.151855</ele>
                <time>2007-12-16T03:05:42Z</time>
            </trkpt>
            <trkpt lon="101.230942" lat="14.571212">
                <ele>272.190430</ele>
                <time>2007-12-16T03:05:47Z</time>
            </trkpt>
            <trkpt lon="101.230932" lat="14.571425">
                <ele>271.709717</ele>
                <time>2007-12-16T03:05:50Z</time>
            </trkpt>
            <trkpt lon="101.230717" lat="14.572212">
                <ele>269.787109</ele>
                <time>2007-12-16T03:06:01Z</time>
            </trkpt>
            <trkpt lon="101.230536" lat="14.572620">
                <ele>273.151855</ele>
                <time>2007-12-16T03:06:08Z</time>
            </trkpt>
            <trkpt lon="101.230440" lat="14.572777">
                <ele>274.113037</ele>
                <time>2007-12-16T03:06:12Z</time>
            </trkpt>
            <trkpt lon="101.230398" lat="14.572836">
                <ele>275.555054</ele>
                <time>2007-12-16T03:06:14Z</time>
            </trkpt>
            <trkpt lon="101.230357" lat="14.572887">
                <ele>276.516357</ele>
                <time>2007-12-16T03:06:18Z</time>
            </trkpt>
            <trkpt lon="101.230350" lat="14.572884">
                <ele>274.593750</ele>
                <time>2007-12-16T03:06:23Z</time>
            </trkpt>
            <trkpt lon="101.230364" lat="14.572887">
                <ele>275.074463</ele>
                <time>2007-12-16T03:06:47Z</time>
            </trkpt>
            <trkpt lon="101.230345" lat="14.572922">
                <ele>275.555054</ele>
                <time>2007-12-16T03:06:52Z</time>
            </trkpt>
            <trkpt lon="101.230238" lat="14.573105">
                <ele>276.035645</ele>
                <time>2007-12-16T03:06:59Z</time>
            </trkpt>
            <trkpt lon="101.230063" lat="14.573421">
                <ele>276.997070</ele>
                <time>2007-12-16T03:07:07Z</time>
            </trkpt>
            <trkpt lon="101.229791" lat="14.573662">
                <ele>276.997070</ele>
                <time>2007-12-16T03:07:14Z</time>
            </trkpt>
            <trkpt lon="101.229400" lat="14.574020">
                <ele>276.997070</ele>
                <time>2007-12-16T03:07:23Z</time>
            </trkpt>
            <trkpt lon="101.229164" lat="14.574370">
                <ele>276.516357</ele>
                <time>2007-12-16T03:07:29Z</time>
            </trkpt>
            <trkpt lon="101.229016" lat="14.574847">
                <ele>273.632446</ele>
                <time>2007-12-16T03:07:35Z</time>
            </trkpt>
            <trkpt lon="101.228925" lat="14.575378">
                <ele>272.190430</ele>
                <time>2007-12-16T03:07:41Z</time>
            </trkpt>
            <trkpt lon="101.228882" lat="14.575548">
                <ele>272.190430</ele>
                <time>2007-12-16T03:07:43Z</time>
            </trkpt>
            <trkpt lon="101.228494" lat="14.576282">
                <ele>270.267700</ele>
                <time>2007-12-16T03:07:52Z</time>
            </trkpt>
            <trkpt lon="101.228158" lat="14.576835">
                <ele>269.306519</ele>
                <time>2007-12-16T03:07:59Z</time>
            </trkpt>
            <trkpt lon="101.227793" lat="14.577112">
                <ele>267.864502</ele>
                <time>2007-12-16T03:08:04Z</time>
            </trkpt>
            <trkpt lon="101.227322" lat="14.577336">
                <ele>267.864502</ele>
                <time>2007-12-16T03:08:10Z</time>
            </trkpt>
            <trkpt lon="101.227254" lat="14.577381">
                <ele>267.864502</ele>
                <time>2007-12-16T03:08:11Z</time>
            </trkpt>
            <trkpt lon="101.227005" lat="14.577685">
                <ele>267.864502</ele>
                <time>2007-12-16T03:08:16Z</time>
            </trkpt>
            <trkpt lon="101.226977" lat="14.577762">
                <ele>267.864502</ele>
                <time>2007-12-16T03:08:17Z</time>
            </trkpt>
            <trkpt lon="101.226828" lat="14.578262">
                <ele>265.941895</ele>
                <time>2007-12-16T03:08:23Z</time>
            </trkpt>
            <trkpt lon="101.226488" lat="14.578724">
                <ele>265.461304</ele>
                <time>2007-12-16T03:08:30Z</time>
            </trkpt>
            <trkpt lon="101.226155" lat="14.579147">
                <ele>266.422485</ele>
                <time>2007-12-16T03:08:37Z</time>
            </trkpt>
            <trkpt lon="101.226013" lat="14.579509">
                <ele>265.461304</ele>
                <time>2007-12-16T03:08:42Z</time>
            </trkpt>
            <trkpt lon="101.226010" lat="14.579880">
                <ele>261.615967</ele>
                <time>2007-12-16T03:08:46Z</time>
            </trkpt>
            <trkpt lon="101.226062" lat="14.580167">
                <ele>261.135254</ele>
                <time>2007-12-16T03:08:49Z</time>
            </trkpt>
            <trkpt lon="101.226331" lat="14.580626">
                <ele>261.135254</ele>
                <time>2007-12-16T03:08:55Z</time>
            </trkpt>
            <trkpt lon="101.226782" lat="14.581224">
                <ele>261.135254</ele>
                <time>2007-12-16T03:09:04Z</time>
            </trkpt>
            <trkpt lon="101.227004" lat="14.581551">
                <ele>262.096558</ele>
                <time>2007-12-16T03:09:09Z</time>
            </trkpt>
            <trkpt lon="101.227059" lat="14.581693">
                <ele>258.731934</ele>
                <time>2007-12-16T03:09:11Z</time>
            </trkpt>
            <trkpt lon="101.227068" lat="14.581765">
                <ele>259.212646</ele>
                <time>2007-12-16T03:09:12Z</time>
            </trkpt>
            <trkpt lon="101.227050" lat="14.581902">
                <ele>261.615967</ele>
                <time>2007-12-16T03:09:14Z</time>
            </trkpt>
            <trkpt lon="101.227018" lat="14.582030">
                <ele>262.577148</ele>
                <time>2007-12-16T03:09:16Z</time>
            </trkpt>
            <trkpt lon="101.226938" lat="14.582407">
                <ele>263.057861</ele>
                <time>2007-12-16T03:09:23Z</time>
            </trkpt>
            <trkpt lon="101.226889" lat="14.582577">
                <ele>264.980591</ele>
                <time>2007-12-16T03:09:27Z</time>
            </trkpt>
            <trkpt lon="101.226852" lat="14.582662">
                <ele>264.499878</ele>
                <time>2007-12-16T03:09:29Z</time>
            </trkpt>
            <trkpt lon="101.226590" lat="14.582958">
                <ele>265.461304</ele>
                <time>2007-12-16T03:09:37Z</time>
            </trkpt>
            <trkpt lon="101.226357" lat="14.583186">
                <ele>261.615967</ele>
                <time>2007-12-16T03:09:42Z</time>
            </trkpt>
            <trkpt lon="101.225932" lat="14.583671">
                <ele>259.212646</ele>
                <time>2007-12-16T03:09:50Z</time>
            </trkpt>
            <trkpt lon="101.225884" lat="14.583743">
                <ele>259.212646</ele>
                <time>2007-12-16T03:09:51Z</time>
            </trkpt>
            <trkpt lon="101.225779" lat="14.583981">
                <ele>257.290039</ele>
                <time>2007-12-16T03:09:54Z</time>
            </trkpt>
            <trkpt lon="101.225749" lat="14.584404">
                <ele>256.809326</ele>
                <time>2007-12-16T03:09:59Z</time>
            </trkpt>
            <trkpt lon="101.225857" lat="14.584694">
                <ele>257.290039</ele>
                <time>2007-12-16T03:10:03Z</time>
            </trkpt>
            <trkpt lon="101.226167" lat="14.585054">
                <ele>258.251343</ele>
                <time>2007-12-16T03:10:10Z</time>
            </trkpt>
            <trkpt lon="101.226356" lat="14.585200">
                <ele>258.731934</ele>
                <time>2007-12-16T03:10:14Z</time>
            </trkpt>
            <trkpt lon="101.226503" lat="14.585367">
                <ele>259.693359</ele>
                <time>2007-12-16T03:10:18Z</time>
            </trkpt>
            <trkpt lon="101.226634" lat="14.585662">
                <ele>259.693359</ele>
                <time>2007-12-16T03:10:24Z</time>
            </trkpt>
            <trkpt lon="101.226585" lat="14.585894">
                <ele>261.135254</ele>
                <time>2007-12-16T03:10:29Z</time>
            </trkpt>
            <trkpt lon="101.226492" lat="14.585946">
                <ele>261.135254</ele>
                <time>2007-12-16T03:10:31Z</time>
            </trkpt>
            <trkpt lon="101.225863" lat="14.586255">
                <ele>261.135254</ele>
                <time>2007-12-16T03:10:43Z</time>
            </trkpt>
            <trkpt lon="101.225279" lat="14.586552">
                <ele>259.693359</ele>
                <time>2007-12-16T03:10:53Z</time>
            </trkpt>
            <trkpt lon="101.225164" lat="14.586616">
                <ele>259.693359</ele>
                <time>2007-12-16T03:10:55Z</time>
            </trkpt>
            <trkpt lon="101.225053" lat="14.586789">
                <ele>260.654541</ele>
                <time>2007-12-16T03:10:59Z</time>
            </trkpt>
            <trkpt lon="101.225100" lat="14.586883">
                <ele>259.212646</ele>
                <time>2007-12-16T03:11:01Z</time>
            </trkpt>
            <trkpt lon="101.225411" lat="14.587433">
                <ele>259.693359</ele>
                <time>2007-12-16T03:11:12Z</time>
            </trkpt>
            <trkpt lon="101.225662" lat="14.587890">
                <ele>260.173950</ele>
                <time>2007-12-16T03:11:21Z</time>
            </trkpt>
            <trkpt lon="101.225954" lat="14.588441">
                <ele>260.654541</ele>
                <time>2007-12-16T03:11:32Z</time>
            </trkpt>
            <trkpt lon="101.226172" lat="14.588845">
                <ele>261.615967</ele>
                <time>2007-12-16T03:11:41Z</time>
            </trkpt>
            <trkpt lon="101.226346" lat="14.589164">
                <ele>262.096558</ele>
                <time>2007-12-16T03:11:49Z</time>
            </trkpt>
            <trkpt lon="101.226442" lat="14.589363">
                <ele>262.096558</ele>
                <time>2007-12-16T03:11:56Z</time>
            </trkpt>
            <trkpt lon="101.226609" lat="14.589410">
                <ele>261.615967</ele>
                <time>2007-12-16T03:12:03Z</time>
            </trkpt>
            <trkpt lon="101.226647" lat="14.589422">
                <ele>262.577148</ele>
                <time>2007-12-16T03:12:08Z</time>
            </trkpt>
            <trkpt lon="101.226649" lat="14.589423">
                <ele>263.057861</ele>
                <time>2007-12-16T03:12:25Z</time>
            </trkpt>
            <trkpt lon="101.226643" lat="14.589422">
                <ele>262.577148</ele>
                <time>2007-12-16T03:12:53Z</time>
            </trkpt>
            <trkpt lon="101.226639" lat="14.589421">
                <ele>263.538574</ele>
                <time>2007-12-16T03:13:11Z</time>
            </trkpt>
            <trkpt lon="101.226639" lat="14.589413">
                <ele>264.980591</ele>
                <time>2007-12-16T03:13:40Z</time>
            </trkpt>
            <trkpt lon="101.226636" lat="14.589417">
                <ele>263.057861</ele>
                <time>2007-12-16T03:14:13Z</time>
            </trkpt>
            <trkpt lon="101.226638" lat="14.589407">
                <ele>263.538574</ele>
                <time>2007-12-16T03:14:41Z</time>
            </trkpt>
            <trkpt lon="101.226646" lat="14.589417">
                <ele>264.019287</ele>
                <time>2007-12-16T03:15:30Z</time>
            </trkpt>
            <trkpt lon="101.226631" lat="14.589428">
                <ele>263.538574</ele>
                <time>2007-12-16T03:16:26Z</time>
            </trkpt>
            <trkpt lon="101.226637" lat="14.589424">
                <ele>262.096558</ele>
                <time>2007-12-16T03:16:48Z</time>
            </trkpt>
            <trkpt lon="101.226637" lat="14.589417">
                <ele>264.019287</ele>
                <time>2007-12-16T03:17:48Z</time>
            </trkpt>
            <trkpt lon="101.226634" lat="14.589404">
                <ele>264.019287</ele>
                <time>2007-12-16T03:18:40Z</time>
            </trkpt>
            <trkpt lon="101.226629" lat="14.589403">
                <ele>263.538574</ele>
                <time>2007-12-16T03:18:53Z</time>
            </trkpt>
            <trkpt lon="101.226628" lat="14.589402">
                <ele>263.538574</ele>
                <time>2007-12-16T03:19:18Z</time>
            </trkpt>
            <trkpt lon="101.226614" lat="14.589392">
                <ele>263.057861</ele>
                <time>2007-12-16T03:19:33Z</time>
            </trkpt>
            <trkpt lon="101.226617" lat="14.589403">
                <ele>264.019287</ele>
                <time>2007-12-16T03:20:00Z</time>
            </trkpt>
            <trkpt lon="101.226622" lat="14.589402">
                <ele>263.538574</ele>
                <time>2007-12-16T03:21:09Z</time>
            </trkpt>
            <trkpt lon="101.226709" lat="14.589390">
                <ele>264.019287</ele>
                <time>2007-12-16T03:21:14Z</time>
            </trkpt>
            <trkpt lon="101.227033" lat="14.589423">
                <ele>265.941895</ele>
                <time>2007-12-16T03:21:24Z</time>
            </trkpt>
            <trkpt lon="101.227279" lat="14.589493">
                <ele>266.422485</ele>
                <time>2007-12-16T03:21:32Z</time>
            </trkpt>
            <trkpt lon="101.227295" lat="14.589627">
                <ele>267.383911</ele>
                <time>2007-12-16T03:21:37Z</time>
            </trkpt>
            <trkpt lon="101.227114" lat="14.589984">
                <ele>266.903198</ele>
                <time>2007-12-16T03:21:47Z</time>
            </trkpt>
            <trkpt lon="101.226915" lat="14.590348">
                <ele>268.345093</ele>
                <time>2007-12-16T03:21:57Z</time>
            </trkpt>
            <trkpt lon="101.226725" lat="14.590696">
                <ele>270.748413</ele>
                <time>2007-12-16T03:22:07Z</time>
            </trkpt>
            <trkpt lon="101.226594" lat="14.590981">
                <ele>273.151855</ele>
                <time>2007-12-16T03:22:17Z</time>
            </trkpt>
            <trkpt lon="101.226480" lat="14.591223">
                <ele>274.593750</ele>
                <time>2007-12-16T03:22:27Z</time>
            </trkpt>
            <trkpt lon="101.226315" lat="14.591552">
                <ele>276.516357</ele>
                <time>2007-12-16T03:22:39Z</time>
            </trkpt>
            <trkpt lon="101.226179" lat="14.591816">
                <ele>277.958252</ele>
                <time>2007-12-16T03:22:49Z</time>
            </trkpt>
            <trkpt lon="101.226040" lat="14.592084">
                <ele>278.919678</ele>
                <time>2007-12-16T03:22:58Z</time>
            </trkpt>
            <trkpt lon="101.225931" lat="14.592311">
                <ele>280.361694</ele>
                <time>2007-12-16T03:23:06Z</time>
            </trkpt>
            <trkpt lon="101.225810" lat="14.592564">
                <ele>281.803589</ele>
                <time>2007-12-16T03:23:15Z</time>
            </trkpt>
            <trkpt lon="101.225678" lat="14.592827">
                <ele>283.245605</ele>
                <time>2007-12-16T03:23:25Z</time>
            </trkpt>
            <trkpt lon="101.225526" lat="14.593093">
                <ele>284.206909</ele>
                <time>2007-12-16T03:23:34Z</time>
            </trkpt>
            <trkpt lon="101.225420" lat="14.593311">
                <ele>284.687622</ele>
                <time>2007-12-16T03:23:41Z</time>
            </trkpt>
            <trkpt lon="101.225247" lat="14.593596">
                <ele>282.765015</ele>
                <time>2007-12-16T03:23:48Z</time>
            </trkpt>
            <trkpt lon="101.225135" lat="14.593773">
                <ele>281.803589</ele>
                <time>2007-12-16T03:23:52Z</time>
            </trkpt>
            <trkpt lon="101.224914" lat="14.594136">
                <ele>282.765015</ele>
                <time>2007-12-16T03:24:00Z</time>
            </trkpt>
            <trkpt lon="101.224769" lat="14.594312">
                <ele>284.206909</ele>
                <time>2007-12-16T03:24:05Z</time>
            </trkpt>
            <trkpt lon="101.224488" lat="14.594534">
                <ele>285.168213</ele>
                <time>2007-12-16T03:24:13Z</time>
            </trkpt>
            <trkpt lon="101.224200" lat="14.594714">
                <ele>282.765015</ele>
                <time>2007-12-16T03:24:19Z</time>
            </trkpt>
            <trkpt lon="101.223688" lat="14.595014">
                <ele>279.880859</ele>
                <time>2007-12-16T03:24:27Z</time>
            </trkpt>
            <trkpt lon="101.223484" lat="14.595107">
                <ele>277.958252</ele>
                <time>2007-12-16T03:24:30Z</time>
            </trkpt>
            <trkpt lon="101.223344" lat="14.595146">
                <ele>276.516357</ele>
                <time>2007-12-16T03:24:32Z</time>
            </trkpt>
            <trkpt lon="101.222831" lat="14.595137">
                <ele>275.074463</ele>
                <time>2007-12-16T03:24:39Z</time>
            </trkpt>
            <trkpt lon="101.222576" lat="14.595116">
                <ele>274.593750</ele>
                <time>2007-12-16T03:24:43Z</time>
            </trkpt>
            <trkpt lon="101.222193" lat="14.595148">
                <ele>271.229126</ele>
                <time>2007-12-16T03:24:49Z</time>
            </trkpt>
            <trkpt lon="101.221982" lat="14.595225">
                <ele>269.306519</ele>
                <time>2007-12-16T03:24:52Z</time>
            </trkpt>
            <trkpt lon="101.221783" lat="14.595334">
                <ele>267.864502</ele>
                <time>2007-12-16T03:24:55Z</time>
            </trkpt>
            <trkpt lon="101.221409" lat="14.595581">
                <ele>264.980591</ele>
                <time>2007-12-16T03:25:01Z</time>
            </trkpt>
            <trkpt lon="101.221250" lat="14.595760">
                <ele>262.577148</ele>
                <time>2007-12-16T03:25:04Z</time>
            </trkpt>
            <trkpt lon="101.220984" lat="14.596081">
                <ele>264.499878</ele>
                <time>2007-12-16T03:25:10Z</time>
            </trkpt>
            <trkpt lon="101.220676" lat="14.596450">
                <ele>265.941895</ele>
                <time>2007-12-16T03:25:18Z</time>
            </trkpt>
            <trkpt lon="101.220406" lat="14.596856">
                <ele>263.538574</ele>
                <time>2007-12-16T03:25:26Z</time>
            </trkpt>
            <trkpt lon="101.220033" lat="14.597326">
                <ele>263.538574</ele>
                <time>2007-12-16T03:25:35Z</time>
            </trkpt>
            <trkpt lon="101.219896" lat="14.597548">
                <ele>264.019287</ele>
                <time>2007-12-16T03:25:41Z</time>
            </trkpt>
            <trkpt lon="101.219782" lat="14.597811">
                <ele>264.980591</ele>
                <time>2007-12-16T03:25:49Z</time>
            </trkpt>
            <trkpt lon="101.219708" lat="14.597957">
                <ele>264.980591</ele>
                <time>2007-12-16T03:25:53Z</time>
            </trkpt>
            <trkpt lon="101.219639" lat="14.598095">
                <ele>265.461304</ele>
                <time>2007-12-16T03:25:57Z</time>
            </trkpt>
            <trkpt lon="101.219464" lat="14.598447">
                <ele>264.499878</ele>
                <time>2007-12-16T03:26:05Z</time>
            </trkpt>
            <trkpt lon="101.219267" lat="14.598803">
                <ele>264.499878</ele>
                <time>2007-12-16T03:26:13Z</time>
            </trkpt>
            <trkpt lon="101.219167" lat="14.598995">
                <ele>265.941895</ele>
                <time>2007-12-16T03:26:19Z</time>
            </trkpt>
            <trkpt lon="101.219155" lat="14.599015">
                <ele>266.422485</ele>
                <time>2007-12-16T03:26:20Z</time>
            </trkpt>
            <trkpt lon="101.219053" lat="14.599266">
                <ele>268.825806</ele>
                <time>2007-12-16T03:26:31Z</time>
            </trkpt>
            <trkpt lon="101.218956" lat="14.599475">
                <ele>270.748413</ele>
                <time>2007-12-16T03:26:40Z</time>
            </trkpt>
            <trkpt lon="101.218845" lat="14.599727">
                <ele>271.229126</ele>
                <time>2007-12-16T03:26:49Z</time>
            </trkpt>
            <trkpt lon="101.218719" lat="14.600022">
                <ele>272.190430</ele>
                <time>2007-12-16T03:26:59Z</time>
            </trkpt>
            <trkpt lon="101.218595" lat="14.600301">
                <ele>270.267700</ele>
                <time>2007-12-16T03:27:07Z</time>
            </trkpt>
            <trkpt lon="101.218511" lat="14.600633">
                <ele>268.825806</ele>
                <time>2007-12-16T03:27:14Z</time>
            </trkpt>
            <trkpt lon="101.218475" lat="14.600875">
                <ele>270.267700</ele>
                <time>2007-12-16T03:27:20Z</time>
            </trkpt>
            <trkpt lon="101.218426" lat="14.601169">
                <ele>271.229126</ele>
                <time>2007-12-16T03:27:29Z</time>
            </trkpt>
            <trkpt lon="101.218386" lat="14.601434">
                <ele>273.151855</ele>
                <time>2007-12-16T03:27:37Z</time>
            </trkpt>
            <trkpt lon="101.218382" lat="14.601482">
                <ele>274.593750</ele>
                <time>2007-12-16T03:27:39Z</time>
            </trkpt>
            <trkpt lon="101.218341" lat="14.601769">
                <ele>274.113037</ele>
                <time>2007-12-16T03:27:49Z</time>
            </trkpt>
            <trkpt lon="101.218250" lat="14.602075">
                <ele>270.748413</ele>
                <time>2007-12-16T03:27:55Z</time>
            </trkpt>
            <trkpt lon="101.218107" lat="14.602548">
                <ele>268.825806</ele>
                <time>2007-12-16T03:28:01Z</time>
            </trkpt>
            <trkpt lon="101.218030" lat="14.602787">
                <ele>271.229126</ele>
                <time>2007-12-16T03:28:05Z</time>
            </trkpt>
            <trkpt lon="101.217914" lat="14.603165">
                <ele>272.190430</ele>
                <time>2007-12-16T03:28:13Z</time>
            </trkpt>
            <trkpt lon="101.217842" lat="14.603426">
                <ele>272.671143</ele>
                <time>2007-12-16T03:28:18Z</time>
            </trkpt>
            <trkpt lon="101.217746" lat="14.603719">
                <ele>269.306519</ele>
                <time>2007-12-16T03:28:24Z</time>
            </trkpt>
            <trkpt lon="101.217725" lat="14.603783">
                <ele>269.306519</ele>
                <time>2007-12-16T03:28:25Z</time>
            </trkpt>
            <trkpt lon="101.217568" lat="14.604231">
                <ele>270.748413</ele>
                <time>2007-12-16T03:28:33Z</time>
            </trkpt>
            <trkpt lon="101.217538" lat="14.604331">
                <ele>272.190430</ele>
                <time>2007-12-16T03:28:36Z</time>
            </trkpt>
            <trkpt lon="101.217424" lat="14.604667">
                <ele>273.151855</ele>
                <time>2007-12-16T03:28:48Z</time>
            </trkpt>
            <trkpt lon="101.217338" lat="14.604964">
                <ele>272.671143</ele>
                <time>2007-12-16T03:28:56Z</time>
            </trkpt>
            <trkpt lon="101.217233" lat="14.605313">
                <ele>273.632446</ele>
                <time>2007-12-16T03:29:05Z</time>
            </trkpt>
            <trkpt lon="101.217097" lat="14.605731">
                <ele>271.709717</ele>
                <time>2007-12-16T03:29:14Z</time>
            </trkpt>
            <trkpt lon="101.216990" lat="14.606063">
                <ele>267.864502</ele>
                <time>2007-12-16T03:29:19Z</time>
            </trkpt>
            <trkpt lon="101.216941" lat="14.606205">
                <ele>267.383911</ele>
                <time>2007-12-16T03:29:21Z</time>
            </trkpt>
            <trkpt lon="101.216803" lat="14.606648">
                <ele>267.864502</ele>
                <time>2007-12-16T03:29:28Z</time>
            </trkpt>
            <trkpt lon="101.216654" lat="14.607202">
                <ele>266.903198</ele>
                <time>2007-12-16T03:29:37Z</time>
            </trkpt>
            <trkpt lon="101.216563" lat="14.607596">
                <ele>264.980591</ele>
                <time>2007-12-16T03:29:43Z</time>
            </trkpt>
            <trkpt lon="101.216552" lat="14.607806">
                <ele>264.980591</ele>
                <time>2007-12-16T03:29:46Z</time>
            </trkpt>
            <trkpt lon="101.216654" lat="14.608361">
                <ele>263.057861</ele>
                <time>2007-12-16T03:29:54Z</time>
            </trkpt>
            <trkpt lon="101.216845" lat="14.608835">
                <ele>261.615967</ele>
                <time>2007-12-16T03:30:02Z</time>
            </trkpt>
            <trkpt lon="101.216938" lat="14.609087">
                <ele>259.693359</ele>
                <time>2007-12-16T03:30:06Z</time>
            </trkpt>
            <trkpt lon="101.217144" lat="14.609765">
                <ele>258.731934</ele>
                <time>2007-12-16T03:30:16Z</time>
            </trkpt>
            <trkpt lon="101.217300" lat="14.610314">
                <ele>259.212646</ele>
                <time>2007-12-16T03:30:25Z</time>
            </trkpt>
            <trkpt lon="101.217271" lat="14.610537">
                <ele>257.770752</ele>
                <time>2007-12-16T03:30:29Z</time>
            </trkpt>
            <trkpt lon="101.217004" lat="14.611064">
                <ele>254.406006</ele>
                <time>2007-12-16T03:30:38Z</time>
            </trkpt>
            <trkpt lon="101.216960" lat="14.611127">
                <ele>254.406006</ele>
                <time>2007-12-16T03:30:39Z</time>
            </trkpt>
            <trkpt lon="101.216530" lat="14.611649">
                <ele>253.444702</ele>
                <time>2007-12-16T03:30:48Z</time>
            </trkpt>
            <trkpt lon="101.216230" lat="14.611983">
                <ele>254.406006</ele>
                <time>2007-12-16T03:30:55Z</time>
            </trkpt>
            <trkpt lon="101.216038" lat="14.612150">
                <ele>251.522095</ele>
                <time>2007-12-16T03:30:59Z</time>
            </trkpt>
            <trkpt lon="101.215844" lat="14.612462">
                <ele>249.118774</ele>
                <time>2007-12-16T03:31:04Z</time>
            </trkpt>
            <trkpt lon="101.215847" lat="14.612601">
                <ele>249.599487</ele>
                <time>2007-12-16T03:31:06Z</time>
            </trkpt>
            <trkpt lon="101.215933" lat="14.613300">
                <ele>249.118774</ele>
                <time>2007-12-16T03:31:17Z</time>
            </trkpt>
            <trkpt lon="101.216015" lat="14.613957">
                <ele>250.080200</ele>
                <time>2007-12-16T03:31:28Z</time>
            </trkpt>
            <trkpt lon="101.216059" lat="14.614362">
                <ele>250.560791</ele>
                <time>2007-12-16T03:31:36Z</time>
            </trkpt>
            <trkpt lon="101.216065" lat="14.614408">
                <ele>251.041382</ele>
                <time>2007-12-16T03:31:37Z</time>
            </trkpt>
            <trkpt lon="101.216121" lat="14.614886">
                <ele>251.522095</ele>
                <time>2007-12-16T03:31:47Z</time>
            </trkpt>
            <trkpt lon="101.216161" lat="14.615342">
                <ele>252.963989</ele>
                <time>2007-12-16T03:31:57Z</time>
            </trkpt>
            <trkpt lon="101.216195" lat="14.615749">
                <ele>255.367310</ele>
                <time>2007-12-16T03:32:09Z</time>
            </trkpt>
            <trkpt lon="101.216210" lat="14.616084">
                <ele>254.886597</ele>
                <time>2007-12-16T03:32:18Z</time>
            </trkpt>
            <trkpt lon="101.216211" lat="14.616382">
                <ele>251.041382</ele>
                <time>2007-12-16T03:32:23Z</time>
            </trkpt>
            <trkpt lon="101.216177" lat="14.616857">
                <ele>249.599487</ele>
                <time>2007-12-16T03:32:29Z</time>
            </trkpt>
            <trkpt lon="101.216131" lat="14.617198">
                <ele>250.080200</ele>
                <time>2007-12-16T03:32:34Z</time>
            </trkpt>
            <trkpt lon="101.216174" lat="14.617612">
                <ele>248.638184</ele>
                <time>2007-12-16T03:32:42Z</time>
            </trkpt>
            <trkpt lon="101.216180" lat="14.617774">
                <ele>249.118774</ele>
                <time>2007-12-16T03:32:45Z</time>
            </trkpt>
            <trkpt lon="101.216058" lat="14.618031">
                <ele>249.118774</ele>
                <time>2007-12-16T03:32:51Z</time>
            </trkpt>
            <trkpt lon="101.216020" lat="14.618059">
                <ele>249.118774</ele>
                <time>2007-12-16T03:32:52Z</time>
            </trkpt>
            <trkpt lon="101.215594" lat="14.618299">
                <ele>251.041382</ele>
                <time>2007-12-16T03:33:03Z</time>
            </trkpt>
            <trkpt lon="101.215340" lat="14.618434">
                <ele>252.483398</ele>
                <time>2007-12-16T03:33:12Z</time>
            </trkpt>
            <trkpt lon="101.215025" lat="14.618618">
                <ele>252.963989</ele>
                <time>2007-12-16T03:33:22Z</time>
            </trkpt>
            <trkpt lon="101.214604" lat="14.618863">
                <ele>252.963989</ele>
                <time>2007-12-16T03:33:33Z</time>
            </trkpt>
            <trkpt lon="101.214535" lat="14.618922">
                <ele>252.963989</ele>
                <time>2007-12-16T03:33:35Z</time>
            </trkpt>
            <trkpt lon="101.214352" lat="14.619145">
                <ele>253.444702</ele>
                <time>2007-12-16T03:33:42Z</time>
            </trkpt>
            <trkpt lon="101.214086" lat="14.619215">
                <ele>252.002808</ele>
                <time>2007-12-16T03:33:48Z</time>
            </trkpt>
            <trkpt lon="101.213587" lat="14.619261">
                <ele>250.560791</ele>
                <time>2007-12-16T03:33:56Z</time>
            </trkpt>
            <trkpt lon="101.213102" lat="14.619283">
                <ele>247.196045</ele>
                <time>2007-12-16T03:34:03Z</time>
            </trkpt>
            <trkpt lon="101.212582" lat="14.619283">
                <ele>246.715454</ele>
                <time>2007-12-16T03:34:11Z</time>
            </trkpt>
            <trkpt lon="101.212397" lat="14.619289">
                <ele>246.234863</ele>
                <time>2007-12-16T03:34:16Z</time>
            </trkpt>
            <trkpt lon="101.212388" lat="14.619288">
                <ele>246.715454</ele>
                <time>2007-12-16T03:34:21Z</time>
            </trkpt>
            <trkpt lon="101.212373" lat="14.619285">
                <ele>246.234863</ele>
                <time>2007-12-16T03:34:37Z</time>
            </trkpt>
            <trkpt lon="101.212195" lat="14.619314">
                <ele>245.754150</ele>
                <time>2007-12-16T03:34:43Z</time>
            </trkpt>
            <trkpt lon="101.211842" lat="14.619338">
                <ele>244.312256</ele>
                <time>2007-12-16T03:34:50Z</time>
            </trkpt>
            <trkpt lon="101.211460" lat="14.619344">
                <ele>241.428223</ele>
                <time>2007-12-16T03:34:56Z</time>
            </trkpt>
            <trkpt lon="101.211393" lat="14.619343">
                <ele>240.947632</ele>
                <time>2007-12-16T03:34:57Z</time>
            </trkpt>
            <trkpt lon="101.211004" lat="14.619351">
                <ele>239.505493</ele>
                <time>2007-12-16T03:35:03Z</time>
            </trkpt>
            <trkpt lon="101.210485" lat="14.619363">
                <ele>238.544312</ele>
                <time>2007-12-16T03:35:11Z</time>
            </trkpt>
            <trkpt lon="101.209721" lat="14.619381">
                <ele>238.544312</ele>
                <time>2007-12-16T03:35:22Z</time>
            </trkpt>
            <trkpt lon="101.209358" lat="14.619377">
                <ele>236.621704</ele>
                <time>2007-12-16T03:35:27Z</time>
            </trkpt>
            <trkpt lon="101.208482" lat="14.619357">
                <ele>236.621704</ele>
                <time>2007-12-16T03:35:40Z</time>
            </trkpt>
            <trkpt lon="101.208404" lat="14.619364">
                <ele>237.102295</ele>
                <time>2007-12-16T03:35:42Z</time>
            </trkpt>
            <trkpt lon="101.208368" lat="14.619523">
                <ele>237.582886</ele>
                <time>2007-12-16T03:35:47Z</time>
            </trkpt>
            <trkpt lon="101.208405" lat="14.619926">
                <ele>236.140991</ele>
                <time>2007-12-16T03:35:54Z</time>
            </trkpt>
            <trkpt lon="101.208440" lat="14.620492">
                <ele>236.140991</ele>
                <time>2007-12-16T03:36:03Z</time>
            </trkpt>
            <trkpt lon="101.208452" lat="14.620683">
                <ele>234.699097</ele>
                <time>2007-12-16T03:36:06Z</time>
            </trkpt>
            <trkpt lon="101.208470" lat="14.621291">
                <ele>233.737671</ele>
                <time>2007-12-16T03:36:15Z</time>
            </trkpt>
            <trkpt lon="101.208502" lat="14.622081">
                <ele>233.257080</ele>
                <time>2007-12-16T03:36:27Z</time>
            </trkpt>
            <trkpt lon="101.208509" lat="14.622442">
                <ele>235.179688</ele>
                <time>2007-12-16T03:36:33Z</time>
            </trkpt>
            <trkpt lon="101.208532" lat="14.623104">
                <ele>237.102295</ele>
                <time>2007-12-16T03:36:45Z</time>
            </trkpt>
            <trkpt lon="101.208546" lat="14.623626">
                <ele>237.102295</ele>
                <time>2007-12-16T03:36:55Z</time>
            </trkpt>
            <trkpt lon="101.208528" lat="14.624148">
                <ele>236.140991</ele>
                <time>2007-12-16T03:37:03Z</time>
            </trkpt>
            <trkpt lon="101.208536" lat="14.624766">
                <ele>234.699097</ele>
                <time>2007-12-16T03:37:12Z</time>
            </trkpt>
            <trkpt lon="101.208594" lat="14.625287">
                <ele>236.140991</ele>
                <time>2007-12-16T03:37:20Z</time>
            </trkpt>
            <trkpt lon="101.208787" lat="14.625795">
                <ele>235.179688</ele>
                <time>2007-12-16T03:37:28Z</time>
            </trkpt>
            <trkpt lon="101.208930" lat="14.626325">
                <ele>235.660278</ele>
                <time>2007-12-16T03:37:37Z</time>
            </trkpt>
            <trkpt lon="101.208961" lat="14.626424">
                <ele>236.621704</ele>
                <time>2007-12-16T03:37:39Z</time>
            </trkpt>
            <trkpt lon="101.208909" lat="14.626704">
                <ele>235.179688</ele>
                <time>2007-12-16T03:37:44Z</time>
            </trkpt>
            <trkpt lon="101.208827" lat="14.627268">
                <ele>232.776489</ele>
                <time>2007-12-16T03:37:52Z</time>
            </trkpt>
            <trkpt lon="101.208865" lat="14.627861">
                <ele>231.334351</ele>
                <time>2007-12-16T03:38:00Z</time>
            </trkpt>
            <trkpt lon="101.209007" lat="14.628280">
                <ele>231.334351</ele>
                <time>2007-12-16T03:38:06Z</time>
            </trkpt>
            <trkpt lon="101.209317" lat="14.628679">
                <ele>232.295776</ele>
                <time>2007-12-16T03:38:13Z</time>
            </trkpt>
            <trkpt lon="101.209593" lat="14.628929">
                <ele>231.814941</ele>
                <time>2007-12-16T03:38:19Z</time>
            </trkpt>
            <trkpt lon="101.209633" lat="14.629085">
                <ele>231.814941</ele>
                <time>2007-12-16T03:38:23Z</time>
            </trkpt>
            <trkpt lon="101.209515" lat="14.629139">
                <ele>231.334351</ele>
                <time>2007-12-16T03:38:26Z</time>
            </trkpt>
            <trkpt lon="101.208986" lat="14.629144">
                <ele>229.892334</ele>
                <time>2007-12-16T03:38:34Z</time>
            </trkpt>
            <trkpt lon="101.208313" lat="14.629156">
                <ele>227.969727</ele>
                <time>2007-12-16T03:38:43Z</time>
            </trkpt>
            <trkpt lon="101.207705" lat="14.629179">
                <ele>227.008545</ele>
                <time>2007-12-16T03:38:51Z</time>
            </trkpt>
            <trkpt lon="101.207234" lat="14.629194">
                <ele>225.566528</ele>
                <time>2007-12-16T03:38:58Z</time>
            </trkpt>
            <trkpt lon="101.207045" lat="14.629321">
                <ele>227.008545</ele>
                <time>2007-12-16T03:39:03Z</time>
            </trkpt>
            <trkpt lon="101.207041" lat="14.629548">
                <ele>227.008545</ele>
                <time>2007-12-16T03:39:08Z</time>
            </trkpt>
            <trkpt lon="101.207023" lat="14.629645">
                <ele>226.527832</ele>
                <time>2007-12-16T03:39:10Z</time>
            </trkpt>
            <trkpt lon="101.206887" lat="14.630052">
                <ele>226.047119</ele>
                <time>2007-12-16T03:39:18Z</time>
            </trkpt>
            <trkpt lon="101.206706" lat="14.630590">
                <ele>225.566528</ele>
                <time>2007-12-16T03:39:27Z</time>
            </trkpt>
            <trkpt lon="101.206545" lat="14.631195">
                <ele>225.566528</ele>
                <time>2007-12-16T03:39:37Z</time>
            </trkpt>
            <trkpt lon="101.206415" lat="14.631273">
                <ele>225.085938</ele>
                <time>2007-12-16T03:39:41Z</time>
            </trkpt>
            <trkpt lon="101.205936" lat="14.631185">
                <ele>225.566528</ele>
                <time>2007-12-16T03:39:50Z</time>
            </trkpt>
            <trkpt lon="101.205511" lat="14.631174">
                <ele>226.047119</ele>
                <time>2007-12-16T03:39:58Z</time>
            </trkpt>
            <trkpt lon="101.205412" lat="14.631168">
                <ele>225.566528</ele>
                <time>2007-12-16T03:40:00Z</time>
            </trkpt>
            <trkpt lon="101.205264" lat="14.631046">
                <ele>226.527832</ele>
                <time>2007-12-16T03:40:05Z</time>
            </trkpt>
            <trkpt lon="101.205190" lat="14.630764">
                <ele>226.047119</ele>
                <time>2007-12-16T03:40:11Z</time>
            </trkpt>
            <trkpt lon="101.205069" lat="14.630267">
                <ele>225.566528</ele>
                <time>2007-12-16T03:40:21Z</time>
            </trkpt>
            <trkpt lon="101.204960" lat="14.629811">
                <ele>226.527832</ele>
                <time>2007-12-16T03:40:30Z</time>
            </trkpt>
            <trkpt lon="101.204839" lat="14.629323">
                <ele>226.527832</ele>
                <time>2007-12-16T03:40:40Z</time>
            </trkpt>
            <trkpt lon="101.204715" lat="14.628839">
                <ele>227.008545</ele>
                <time>2007-12-16T03:40:50Z</time>
            </trkpt>
            <trkpt lon="101.204603" lat="14.628388">
                <ele>227.969727</ele>
                <time>2007-12-16T03:41:00Z</time>
            </trkpt>
            <trkpt lon="101.204508" lat="14.628000">
                <ele>227.489136</ele>
                <time>2007-12-16T03:41:09Z</time>
            </trkpt>
            <trkpt lon="101.204491" lat="14.627900">
                <ele>227.969727</ele>
                <time>2007-12-16T03:41:12Z</time>
            </trkpt>
            <trkpt lon="101.204587" lat="14.627802">
                <ele>227.969727</ele>
                <time>2007-12-16T03:41:16Z</time>
            </trkpt>
            <trkpt lon="101.204670" lat="14.627767">
                <ele>227.969727</ele>
                <time>2007-12-16T03:41:18Z</time>
            </trkpt>
            <trkpt lon="101.204767" lat="14.627588">
                <ele>228.450439</ele>
                <time>2007-12-16T03:41:23Z</time>
            </trkpt>
            <trkpt lon="101.204742" lat="14.627306">
                <ele>228.931152</ele>
                <time>2007-12-16T03:41:29Z</time>
            </trkpt>
            <trkpt lon="101.204744" lat="14.627030">
                <ele>228.450439</ele>
                <time>2007-12-16T03:41:35Z</time>
            </trkpt>
            <trkpt lon="101.204720" lat="14.626846">
                <ele>228.931152</ele>
                <time>2007-12-16T03:41:39Z</time>
            </trkpt>
            <trkpt lon="101.204652" lat="14.626668">
                <ele>227.969727</ele>
                <time>2007-12-16T03:41:43Z</time>
            </trkpt>
            <trkpt lon="101.204598" lat="14.626583">
                <ele>227.969727</ele>
                <time>2007-12-16T03:41:45Z</time>
            </trkpt>
            <trkpt lon="101.204535" lat="14.626510">
                <ele>228.931152</ele>
                <time>2007-12-16T03:41:47Z</time>
            </trkpt>
            <trkpt lon="101.204434" lat="14.626423">
                <ele>228.450439</ele>
                <time>2007-12-16T03:41:50Z</time>
            </trkpt>
            <trkpt lon="101.204330" lat="14.626239">
                <ele>228.931152</ele>
                <time>2007-12-16T03:41:55Z</time>
            </trkpt>
            <trkpt lon="101.204322" lat="14.625830">
                <ele>229.411743</ele>
                <time>2007-12-16T03:42:05Z</time>
            </trkpt>
            <trkpt lon="101.204299" lat="14.625582">
                <ele>229.892334</ele>
                <time>2007-12-16T03:42:12Z</time>
            </trkpt>
            <trkpt lon="101.204100" lat="14.625399">
                <ele>229.411743</ele>
                <time>2007-12-16T03:42:20Z</time>
            </trkpt>
            <trkpt lon="101.203799" lat="14.625151">
                <ele>229.892334</ele>
                <time>2007-12-16T03:42:30Z</time>
            </trkpt>
            <trkpt lon="101.203608" lat="14.624989">
                <ele>230.853760</ele>
                <time>2007-12-16T03:42:37Z</time>
            </trkpt>
            <trkpt lon="101.203473" lat="14.624808">
                <ele>231.334351</ele>
                <time>2007-12-16T03:42:44Z</time>
            </trkpt>
            <trkpt lon="101.203331" lat="14.624622">
                <ele>232.295776</ele>
                <time>2007-12-16T03:42:52Z</time>
            </trkpt>
            <trkpt lon="101.203209" lat="14.624484">
                <ele>234.218384</ele>
                <time>2007-12-16T03:43:00Z</time>
            </trkpt>
            <trkpt lon="101.203094" lat="14.624403">
                <ele>235.179688</ele>
                <time>2007-12-16T03:43:08Z</time>
            </trkpt>
            <trkpt lon="101.202992" lat="14.624371">
                <ele>236.140991</ele>
                <time>2007-12-16T03:43:14Z</time>
            </trkpt>
            <trkpt lon="101.202960" lat="14.624349">
                <ele>237.102295</ele>
                <time>2007-12-16T03:43:18Z</time>
            </trkpt>
            <trkpt lon="101.202944" lat="14.624343">
                <ele>237.102295</ele>
                <time>2007-12-16T03:43:19Z</time>
            </trkpt>
            <trkpt lon="101.202736" lat="14.624276">
                <ele>240.467041</ele>
                <time>2007-12-16T03:43:32Z</time>
            </trkpt>
            <trkpt lon="101.202682" lat="14.624263">
                <ele>240.947632</ele>
                <time>2007-12-16T03:43:36Z</time>
            </trkpt>
            <trkpt lon="101.202629" lat="14.624262">
                <ele>241.908936</ele>
                <time>2007-12-16T03:43:40Z</time>
            </trkpt>
            <trkpt lon="101.202456" lat="14.624239">
                <ele>242.870239</ele>
                <time>2007-12-16T03:43:52Z</time>
            </trkpt>
            <trkpt lon="101.202297" lat="14.624204">
                <ele>245.273438</ele>
                <time>2007-12-16T03:44:04Z</time>
            </trkpt>
            <trkpt lon="101.202140" lat="14.624242">
                <ele>247.196045</ele>
                <time>2007-12-16T03:44:14Z</time>
            </trkpt>
            <trkpt lon="101.202105" lat="14.624254">
                <ele>247.676758</ele>
                <time>2007-12-16T03:44:16Z</time>
            </trkpt>
            <trkpt lon="101.201917" lat="14.624259">
                <ele>247.676758</ele>
                <time>2007-12-16T03:44:25Z</time>
            </trkpt>
            <trkpt lon="101.201728" lat="14.624223">
                <ele>248.157593</ele>
                <time>2007-12-16T03:44:34Z</time>
            </trkpt>
            <trkpt lon="101.201589" lat="14.624168">
                <ele>247.196045</ele>
                <time>2007-12-16T03:44:41Z</time>
            </trkpt>
            <trkpt lon="101.201542" lat="14.624086">
                <ele>246.234863</ele>
                <time>2007-12-16T03:44:45Z</time>
            </trkpt>
            <trkpt lon="101.201570" lat="14.623895">
                <ele>244.792847</ele>
                <time>2007-12-16T03:44:52Z</time>
            </trkpt>
            <trkpt lon="101.201589" lat="14.623689">
                <ele>241.908936</ele>
                <time>2007-12-16T03:44:57Z</time>
            </trkpt>
            <trkpt lon="101.201592" lat="14.623454">
                <ele>238.544312</ele>
                <time>2007-12-16T03:45:02Z</time>
            </trkpt>
            <trkpt lon="101.201629" lat="14.623230">
                <ele>236.621704</ele>
                <time>2007-12-16T03:45:06Z</time>
            </trkpt>
            <trkpt lon="101.201684" lat="14.622964">
                <ele>235.660278</ele>
                <time>2007-12-16T03:45:12Z</time>
            </trkpt>
            <trkpt lon="101.201693" lat="14.622916">
                <ele>235.179688</ele>
                <time>2007-12-16T03:45:13Z</time>
            </trkpt>
            <trkpt lon="101.201845" lat="14.622608">
                <ele>233.257080</ele>
                <time>2007-12-16T03:45:20Z</time>
            </trkpt>
            <trkpt lon="101.202001" lat="14.622229">
                <ele>231.814941</ele>
                <time>2007-12-16T03:45:28Z</time>
            </trkpt>
            <trkpt lon="101.202104" lat="14.621706">
                <ele>230.853760</ele>
                <time>2007-12-16T03:45:37Z</time>
            </trkpt>
            <trkpt lon="101.202242" lat="14.621187">
                <ele>232.295776</ele>
                <time>2007-12-16T03:45:46Z</time>
            </trkpt>
            <trkpt lon="101.202318" lat="14.620839">
                <ele>231.814941</ele>
                <time>2007-12-16T03:45:52Z</time>
            </trkpt>
            <trkpt lon="101.202437" lat="14.620372">
                <ele>231.814941</ele>
                <time>2007-12-16T03:46:00Z</time>
            </trkpt>
            <trkpt lon="101.202528" lat="14.620036">
                <ele>231.814941</ele>
                <time>2007-12-16T03:46:06Z</time>
            </trkpt>
            <trkpt lon="101.202621" lat="14.619781">
                <ele>231.334351</ele>
                <time>2007-12-16T03:46:11Z</time>
            </trkpt>
            <trkpt lon="101.202664" lat="14.619628">
                <ele>230.853760</ele>
                <time>2007-12-16T03:46:14Z</time>
            </trkpt>
            <trkpt lon="101.202803" lat="14.619113">
                <ele>231.334351</ele>
                <time>2007-12-16T03:46:24Z</time>
            </trkpt>
            <trkpt lon="101.202983" lat="14.618503">
                <ele>232.776489</ele>
                <time>2007-12-16T03:46:36Z</time>
            </trkpt>
            <trkpt lon="101.203011" lat="14.618367">
                <ele>233.737671</ele>
                <time>2007-12-16T03:46:39Z</time>
            </trkpt>
            <trkpt lon="101.203072" lat="14.618063">
                <ele>236.621704</ele>
                <time>2007-12-16T03:46:47Z</time>
            </trkpt>
            <trkpt lon="101.203080" lat="14.618023">
                <ele>236.621704</ele>
                <time>2007-12-16T03:46:48Z</time>
            </trkpt>
            <trkpt lon="101.203131" lat="14.617788">
                <ele>235.660278</ele>
                <time>2007-12-16T03:46:53Z</time>
            </trkpt>
            <trkpt lon="101.203292" lat="14.617433">
                <ele>234.218384</ele>
                <time>2007-12-16T03:47:01Z</time>
            </trkpt>
            <trkpt lon="101.203420" lat="14.617127">
                <ele>236.140991</ele>
                <time>2007-12-16T03:47:08Z</time>
            </trkpt>
            <trkpt lon="101.203447" lat="14.617044">
                <ele>236.621704</ele>
                <time>2007-12-16T03:47:10Z</time>
            </trkpt>
            <trkpt lon="101.203502" lat="14.616927">
                <ele>236.140991</ele>
                <time>2007-12-16T03:47:13Z</time>
            </trkpt>
            <trkpt lon="101.203639" lat="14.616793">
                <ele>235.179688</ele>
                <time>2007-12-16T03:47:17Z</time>
            </trkpt>
            <trkpt lon="101.203875" lat="14.616680">
                <ele>234.218384</ele>
                <time>2007-12-16T03:47:22Z</time>
            </trkpt>
            <trkpt lon="101.204082" lat="14.616509">
                <ele>234.699097</ele>
                <time>2007-12-16T03:47:28Z</time>
            </trkpt>
            <trkpt lon="101.204144" lat="14.616389">
                <ele>234.699097</ele>
                <time>2007-12-16T03:47:34Z</time>
            </trkpt>
            <trkpt lon="101.204153" lat="14.616369">
                <ele>234.699097</ele>
                <time>2007-12-16T03:47:39Z</time>
            </trkpt>
            <trkpt lon="101.204160" lat="14.616357">
                <ele>235.179688</ele>
                <time>2007-12-16T03:47:49Z</time>
            </trkpt>
            <trkpt lon="101.204156" lat="14.616378">
                <ele>235.179688</ele>
                <time>2007-12-16T03:48:19Z</time>
            </trkpt>
            <trkpt lon="101.204152" lat="14.616394">
                <ele>235.179688</ele>
                <time>2007-12-16T03:48:30Z</time>
            </trkpt>
            <trkpt lon="101.204127" lat="14.616462">
                <ele>234.699097</ele>
                <time>2007-12-16T03:48:39Z</time>
            </trkpt>
            <trkpt lon="101.204115" lat="14.616539">
                <ele>234.699097</ele>
                <time>2007-12-16T03:48:44Z</time>
            </trkpt>
            <trkpt lon="101.204171" lat="14.616674">
                <ele>234.218384</ele>
                <time>2007-12-16T03:48:49Z</time>
            </trkpt>
            <trkpt lon="101.204139" lat="14.616852">
                <ele>233.257080</ele>
                <time>2007-12-16T03:48:55Z</time>
            </trkpt>
            <trkpt lon="101.204062" lat="14.617164">
                <ele>233.257080</ele>
                <time>2007-12-16T03:49:04Z</time>
            </trkpt>
            <trkpt lon="101.204023" lat="14.617425">
                <ele>232.776489</ele>
                <time>2007-12-16T03:49:11Z</time>
            </trkpt>
            <trkpt lon="101.204025" lat="14.617785">
                <ele>232.776489</ele>
                <time>2007-12-16T03:49:19Z</time>
            </trkpt>
            <trkpt lon="101.204042" lat="14.617944">
                <ele>232.295776</ele>
                <time>2007-12-16T03:49:22Z</time>
            </trkpt>
            <trkpt lon="101.204110" lat="14.618257">
                <ele>233.257080</ele>
                <time>2007-12-16T03:49:29Z</time>
            </trkpt>
            <trkpt lon="101.204206" lat="14.618538">
                <ele>233.257080</ele>
                <time>2007-12-16T03:49:36Z</time>
            </trkpt>
            <trkpt lon="101.204357" lat="14.618774">
                <ele>232.295776</ele>
                <time>2007-12-16T03:49:42Z</time>
            </trkpt>
            <trkpt lon="101.204456" lat="14.618924">
                <ele>233.257080</ele>
                <time>2007-12-16T03:49:46Z</time>
            </trkpt>
            <trkpt lon="101.204728" lat="14.619227">
                <ele>231.814941</ele>
                <time>2007-12-16T03:49:55Z</time>
            </trkpt>
            <trkpt lon="101.204829" lat="14.619353">
                <ele>231.814941</ele>
                <time>2007-12-16T03:50:01Z</time>
            </trkpt>
            <trkpt lon="101.204851" lat="14.619375">
                <ele>231.814941</ele>
                <time>2007-12-16T03:50:06Z</time>
            </trkpt>
            <trkpt lon="101.204869" lat="14.619377">
                <ele>232.295776</ele>
                <time>2007-12-16T03:50:15Z</time>
            </trkpt>
            <trkpt lon="101.204876" lat="14.619373">
                <ele>231.814941</ele>
                <time>2007-12-16T03:50:30Z</time>
            </trkpt>
            <trkpt lon="101.204879" lat="14.619374">
                <ele>231.814941</ele>
                <time>2007-12-16T03:50:32Z</time>
            </trkpt>
            <trkpt lon="101.204925" lat="14.619389">
                <ele>231.334351</ele>
                <time>2007-12-16T03:50:40Z</time>
            </trkpt>
            <trkpt lon="101.204966" lat="14.619402">
                <ele>229.892334</ele>
                <time>2007-12-16T03:50:54Z</time>
            </trkpt>
            <trkpt lon="101.204997" lat="14.619389">
                <ele>228.931152</ele>
                <time>2007-12-16T03:51:04Z</time>
            </trkpt>
            <trkpt lon="101.205020" lat="14.619399">
                <ele>228.450439</ele>
                <time>2007-12-16T03:51:17Z</time>
            </trkpt>
            <trkpt lon="101.205053" lat="14.619421">
                <ele>227.489136</ele>
                <time>2007-12-16T03:51:31Z</time>
            </trkpt>
            <trkpt lon="101.205074" lat="14.619442">
                <ele>226.527832</ele>
                <time>2007-12-16T03:51:46Z</time>
            </trkpt>
            <trkpt lon="101.205090" lat="14.619446">
                <ele>226.047119</ele>
                <time>2007-12-16T03:51:57Z</time>
            </trkpt>
            <trkpt lon="101.205133" lat="14.619439">
                <ele>225.566528</ele>
                <time>2007-12-16T03:52:20Z</time>
            </trkpt>
            <trkpt lon="101.205154" lat="14.619426">
                <ele>225.566528</ele>
                <time>2007-12-16T03:52:29Z</time>
            </trkpt>
            <trkpt lon="101.205185" lat="14.619426">
                <ele>225.085938</ele>
                <time>2007-12-16T03:52:39Z</time>
            </trkpt>
            <trkpt lon="101.205214" lat="14.619418">
                <ele>226.527832</ele>
                <time>2007-12-16T03:52:48Z</time>
            </trkpt>
            <trkpt lon="101.205232" lat="14.619423">
                <ele>227.008545</ele>
                <time>2007-12-16T03:52:55Z</time>
            </trkpt>
            <trkpt lon="101.205276" lat="14.619435">
                <ele>228.931152</ele>
                <time>2007-12-16T03:53:03Z</time>
            </trkpt>
            <trkpt lon="101.205289" lat="14.619442">
                <ele>227.969727</ele>
                <time>2007-12-16T03:53:09Z</time>
            </trkpt>
            <trkpt lon="101.205310" lat="14.619429">
                <ele>228.931152</ele>
                <time>2007-12-16T03:53:25Z</time>
            </trkpt>
            <trkpt lon="101.205424" lat="14.619414">
                <ele>230.373047</ele>
                <time>2007-12-16T03:53:37Z</time>
            </trkpt>
            <trkpt lon="101.205496" lat="14.619404">
                <ele>231.334351</ele>
                <time>2007-12-16T03:53:43Z</time>
            </trkpt>
            <trkpt lon="101.205534" lat="14.619372">
                <ele>230.853760</ele>
                <time>2007-12-16T03:53:51Z</time>
            </trkpt>
            <trkpt lon="101.205538" lat="14.619372">
                <ele>230.853760</ele>
                <time>2007-12-16T03:53:52Z</time>
            </trkpt>
            <trkpt lon="101.205558" lat="14.619371">
                <ele>230.853760</ele>
                <time>2007-12-16T03:53:54Z</time>
            </trkpt>
            <trkpt lon="101.205689" lat="14.619328">
                <ele>231.334351</ele>
                <time>2007-12-16T03:54:05Z</time>
            </trkpt>
            <trkpt lon="101.205719" lat="14.619308">
                <ele>232.295776</ele>
                <time>2007-12-16T03:54:12Z</time>
            </trkpt>
            <trkpt lon="101.205765" lat="14.619287">
                <ele>230.853760</ele>
                <time>2007-12-16T03:54:58Z</time>
            </trkpt>
            <trkpt lon="101.205768" lat="14.619276">
                <ele>231.814941</ele>
                <time>2007-12-16T03:55:11Z</time>
            </trkpt>
            <trkpt lon="101.205750" lat="14.619221">
                <ele>231.334351</ele>
                <time>2007-12-16T03:55:16Z</time>
            </trkpt>
            <trkpt lon="101.205720" lat="14.619062">
                <ele>231.814941</ele>
                <time>2007-12-16T03:55:24Z</time>
            </trkpt>
            <trkpt lon="101.205701" lat="14.618901">
                <ele>231.334351</ele>
                <time>2007-12-16T03:55:30Z</time>
            </trkpt>
            <trkpt lon="101.205683" lat="14.618606">
                <ele>232.295776</ele>
                <time>2007-12-16T03:55:39Z</time>
            </trkpt>
            <trkpt lon="101.205656" lat="14.618326">
                <ele>232.295776</ele>
                <time>2007-12-16T03:55:46Z</time>
            </trkpt>
            <trkpt lon="101.205660" lat="14.618233">
                <ele>232.295776</ele>
                <time>2007-12-16T03:55:51Z</time>
            </trkpt>
            <trkpt lon="101.205671" lat="14.618209">
                <ele>232.776489</ele>
                <time>2007-12-16T03:55:57Z</time>
            </trkpt>
            <trkpt lon="101.205697" lat="14.618199">
                <ele>232.295776</ele>
                <time>2007-12-16T03:56:11Z</time>
            </trkpt>
            <trkpt lon="101.205731" lat="14.618205">
                <ele>232.295776</ele>
                <time>2007-12-16T03:56:19Z</time>
            </trkpt>
            <trkpt lon="101.205749" lat="14.618205">
                <ele>232.776489</ele>
                <time>2007-12-16T03:56:26Z</time>
            </trkpt>
            <trkpt lon="101.205790" lat="14.618165">
                <ele>233.737671</ele>
                <time>2007-12-16T03:56:33Z</time>
            </trkpt>
            <trkpt lon="101.205813" lat="14.618136">
                <ele>234.218384</ele>
                <time>2007-12-16T03:56:41Z</time>
            </trkpt>
            <trkpt lon="101.205882" lat="14.618090">
                <ele>234.699097</ele>
                <time>2007-12-16T03:56:46Z</time>
            </trkpt>
            <trkpt lon="101.206028" lat="14.618124">
                <ele>234.218384</ele>
                <time>2007-12-16T03:56:51Z</time>
            </trkpt>
            <trkpt lon="101.206262" lat="14.618130">
                <ele>235.179688</ele>
                <time>2007-12-16T03:56:58Z</time>
            </trkpt>
            <trkpt lon="101.206574" lat="14.618133">
                <ele>235.179688</ele>
                <time>2007-12-16T03:57:06Z</time>
            </trkpt>
            <trkpt lon="101.206653" lat="14.618133">
                <ele>235.179688</ele>
                <time>2007-12-16T03:57:08Z</time>
            </trkpt>
            <trkpt lon="101.206970" lat="14.618100">
                <ele>235.179688</ele>
                <time>2007-12-16T03:57:15Z</time>
            </trkpt>
            <trkpt lon="101.207374" lat="14.618100">
                <ele>235.660278</ele>
                <time>2007-12-16T03:57:24Z</time>
            </trkpt>
            <trkpt lon="101.207691" lat="14.618091">
                <ele>236.140991</ele>
                <time>2007-12-16T03:57:31Z</time>
            </trkpt>
            <trkpt lon="101.207824" lat="14.618084">
                <ele>236.140991</ele>
                <time>2007-12-16T03:57:34Z</time>
            </trkpt>
            <trkpt lon="101.208214" lat="14.618040">
                <ele>237.582886</ele>
                <time>2007-12-16T03:57:43Z</time>
            </trkpt>
            <trkpt lon="101.208348" lat="14.618034">
                <ele>238.544312</ele>
                <time>2007-12-16T03:57:47Z</time>
            </trkpt>
            <trkpt lon="101.208402" lat="14.618017">
                <ele>239.505493</ele>
                <time>2007-12-16T03:57:49Z</time>
            </trkpt>
            <trkpt lon="101.208444" lat="14.617912">
                <ele>239.505493</ele>
                <time>2007-12-16T03:57:53Z</time>
            </trkpt>
            <trkpt lon="101.208450" lat="14.617541">
                <ele>239.024902</ele>
                <time>2007-12-16T03:58:02Z</time>
            </trkpt>
            <trkpt lon="101.208446" lat="14.617066">
                <ele>239.024902</ele>
                <time>2007-12-16T03:58:12Z</time>
            </trkpt>
            <trkpt lon="101.208439" lat="14.616585">
                <ele>238.063599</ele>
                <time>2007-12-16T03:58:20Z</time>
            </trkpt>
            <trkpt lon="101.208416" lat="14.615937">
                <ele>237.102295</ele>
                <time>2007-12-16T03:58:30Z</time>
            </trkpt>
            <trkpt lon="101.208424" lat="14.615347">
                <ele>236.140991</ele>
                <time>2007-12-16T03:58:39Z</time>
            </trkpt>
            <trkpt lon="101.208427" lat="14.614990">
                <ele>235.179688</ele>
                <time>2007-12-16T03:58:45Z</time>
            </trkpt>
            <trkpt lon="101.208423" lat="14.614860">
                <ele>235.179688</ele>
                <time>2007-12-16T03:58:47Z</time>
            </trkpt>
            <trkpt lon="101.208515" lat="14.614289">
                <ele>234.699097</ele>
                <time>2007-12-16T03:58:56Z</time>
            </trkpt>
            <trkpt lon="101.208674" lat="14.613865">
                <ele>232.776489</ele>
                <time>2007-12-16T03:59:03Z</time>
            </trkpt>
            <trkpt lon="101.208758" lat="14.613598">
                <ele>232.776489</ele>
                <time>2007-12-16T03:59:07Z</time>
            </trkpt>
            <trkpt lon="101.208780" lat="14.613267">
                <ele>234.218384</ele>
                <time>2007-12-16T03:59:12Z</time>
            </trkpt>
            <trkpt lon="101.208719" lat="14.612726">
                <ele>235.179688</ele>
                <time>2007-12-16T03:59:21Z</time>
            </trkpt>
            <trkpt lon="101.208722" lat="14.612662">
                <ele>234.218384</ele>
                <time>2007-12-16T03:59:22Z</time>
            </trkpt>
            <trkpt lon="101.208796" lat="14.612428">
                <ele>234.218384</ele>
                <time>2007-12-16T03:59:26Z</time>
            </trkpt>
            <trkpt lon="101.208984" lat="14.612033">
                <ele>234.699097</ele>
                <time>2007-12-16T03:59:33Z</time>
            </trkpt>
            <trkpt lon="101.209285" lat="14.611720">
                <ele>236.140991</ele>
                <time>2007-12-16T03:59:41Z</time>
            </trkpt>
            <trkpt lon="101.209371" lat="14.611609">
                <ele>238.063599</ele>
                <time>2007-12-16T03:59:44Z</time>
            </trkpt>
            <trkpt lon="101.209559" lat="14.611398">
                <ele>239.024902</ele>
                <time>2007-12-16T03:59:51Z</time>
            </trkpt>
            <trkpt lon="101.209585" lat="14.611365">
                <ele>239.024902</ele>
                <time>2007-12-16T03:59:52Z</time>
            </trkpt>
            <trkpt lon="101.209671" lat="14.611163">
                <ele>239.505493</ele>
                <time>2007-12-16T03:59:57Z</time>
            </trkpt>
            <trkpt lon="101.209708" lat="14.610931">
                <ele>239.505493</ele>
                <time>2007-12-16T04:00:02Z</time>
            </trkpt>
            <trkpt lon="101.209688" lat="14.610336">
                <ele>238.063599</ele>
                <time>2007-12-16T04:00:13Z</time>
            </trkpt>
            <trkpt lon="101.209659" lat="14.610231">
                <ele>238.063599</ele>
                <time>2007-12-16T04:00:15Z</time>
            </trkpt>
            <trkpt lon="101.209513" lat="14.609987">
                <ele>237.582886</ele>
                <time>2007-12-16T04:00:20Z</time>
            </trkpt>
            <trkpt lon="101.209034" lat="14.609571">
                <ele>237.102295</ele>
                <time>2007-12-16T04:00:31Z</time>
            </trkpt>
            <trkpt lon="101.208660" lat="14.609239">
                <ele>236.140991</ele>
                <time>2007-12-16T04:00:39Z</time>
            </trkpt>
            <trkpt lon="101.208210" lat="14.608836">
                <ele>236.140991</ele>
                <time>2007-12-16T04:00:49Z</time>
            </trkpt>
            <trkpt lon="101.207893" lat="14.608511">
                <ele>238.544312</ele>
                <time>2007-12-16T04:00:58Z</time>
            </trkpt>
            <trkpt lon="101.207556" lat="14.608213">
                <ele>239.986206</ele>
                <time>2007-12-16T04:01:08Z</time>
            </trkpt>
            <trkpt lon="101.207168" lat="14.607933">
                <ele>239.986206</ele>
                <time>2007-12-16T04:01:18Z</time>
            </trkpt>
            <trkpt lon="101.207096" lat="14.607869">
                <ele>239.986206</ele>
                <time>2007-12-16T04:01:20Z</time>
            </trkpt>
            <trkpt lon="101.206987" lat="14.607630">
                <ele>239.024902</ele>
                <time>2007-12-16T04:01:25Z</time>
            </trkpt>
            <trkpt lon="101.207062" lat="14.607353">
                <ele>239.024902</ele>
                <time>2007-12-16T04:01:30Z</time>
            </trkpt>
            <trkpt lon="101.207166" lat="14.607230">
                <ele>239.505493</ele>
                <time>2007-12-16T04:01:33Z</time>
            </trkpt>
            <trkpt lon="101.207239" lat="14.607043">
                <ele>239.986206</ele>
                <time>2007-12-16T04:01:37Z</time>
            </trkpt>
            <trkpt lon="101.207193" lat="14.606587">
                <ele>239.986206</ele>
                <time>2007-12-16T04:01:46Z</time>
            </trkpt>
            <trkpt lon="101.207132" lat="14.606372">
                <ele>239.024902</ele>
                <time>2007-12-16T04:01:50Z</time>
            </trkpt>
            <trkpt lon="101.206977" lat="14.606065">
                <ele>239.505493</ele>
                <time>2007-12-16T04:01:56Z</time>
            </trkpt>
            <trkpt lon="101.206826" lat="14.605819">
                <ele>238.544312</ele>
                <time>2007-12-16T04:02:02Z</time>
            </trkpt>
            <trkpt lon="101.206824" lat="14.605665">
                <ele>238.063599</ele>
                <time>2007-12-16T04:02:06Z</time>
            </trkpt>
            <trkpt lon="101.206860" lat="14.605637">
                <ele>238.063599</ele>
                <time>2007-12-16T04:02:07Z</time>
            </trkpt>
            <trkpt lon="101.206996" lat="14.605426">
                <ele>238.544312</ele>
                <time>2007-12-16T04:02:13Z</time>
            </trkpt>
            <trkpt lon="101.206958" lat="14.605255">
                <ele>239.024902</ele>
                <time>2007-12-16T04:02:17Z</time>
            </trkpt>
            <trkpt lon="101.206899" lat="14.605144">
                <ele>239.505493</ele>
                <time>2007-12-16T04:02:20Z</time>
            </trkpt>
            <trkpt lon="101.206721" lat="14.604842">
                <ele>239.024902</ele>
                <time>2007-12-16T04:02:28Z</time>
            </trkpt>
            <trkpt lon="101.206679" lat="14.604549">
                <ele>238.063599</ele>
                <time>2007-12-16T04:02:34Z</time>
            </trkpt>
            <trkpt lon="101.206692" lat="14.604500">
                <ele>238.063599</ele>
                <time>2007-12-16T04:02:35Z</time>
            </trkpt>
            <trkpt lon="101.206719" lat="14.604402">
                <ele>238.544312</ele>
                <time>2007-12-16T04:02:37Z</time>
            </trkpt>
            <trkpt lon="101.206808" lat="14.604186">
                <ele>237.102295</ele>
                <time>2007-12-16T04:02:42Z</time>
            </trkpt>
            <trkpt lon="101.206852" lat="14.604159">
                <ele>237.102295</ele>
                <time>2007-12-16T04:02:43Z</time>
            </trkpt>
            <trkpt lon="101.207239" lat="14.603963">
                <ele>237.582886</ele>
                <time>2007-12-16T04:02:51Z</time>
            </trkpt>
            <trkpt lon="101.207395" lat="14.603860">
                <ele>237.582886</ele>
                <time>2007-12-16T04:02:55Z</time>
            </trkpt>
            <trkpt lon="101.207460" lat="14.603803">
                <ele>237.582886</ele>
                <time>2007-12-16T04:02:57Z</time>
            </trkpt>
            <trkpt lon="101.207587" lat="14.603561">
                <ele>238.063599</ele>
                <time>2007-12-16T04:03:04Z</time>
            </trkpt>
            <trkpt lon="101.207586" lat="14.603524">
                <ele>238.544312</ele>
                <time>2007-12-16T04:03:09Z</time>
            </trkpt>
            <trkpt lon="101.207553" lat="14.603485">
                <ele>238.544312</ele>
                <time>2007-12-16T04:03:19Z</time>
            </trkpt>
            <trkpt lon="101.207532" lat="14.603458">
                <ele>239.505493</ele>
                <time>2007-12-16T04:03:31Z</time>
            </trkpt>
            <trkpt lon="101.207535" lat="14.603439">
                <ele>238.544312</ele>
                <time>2007-12-16T04:03:38Z</time>
            </trkpt>
            <trkpt lon="101.207512" lat="14.603420">
                <ele>239.024902</ele>
                <time>2007-12-16T04:04:11Z</time>
            </trkpt>
            <trkpt lon="101.207528" lat="14.603343">
                <ele>239.505493</ele>
                <time>2007-12-16T04:04:16Z</time>
            </trkpt>
            <trkpt lon="101.207754" lat="14.603167">
                <ele>239.505493</ele>
                <time>2007-12-16T04:04:25Z</time>
            </trkpt>
            <trkpt lon="101.207796" lat="14.602927">
                <ele>239.986206</ele>
                <time>2007-12-16T04:04:32Z</time>
            </trkpt>
            <trkpt lon="101.207839" lat="14.602567">
                <ele>239.986206</ele>
                <time>2007-12-16T04:04:41Z</time>
            </trkpt>
            <trkpt lon="101.207893" lat="14.602391">
                <ele>240.947632</ele>
                <time>2007-12-16T04:04:47Z</time>
            </trkpt>
            <trkpt lon="101.207884" lat="14.602398">
                <ele>240.947632</ele>
                <time>2007-12-16T04:04:55Z</time>
            </trkpt>
            <trkpt lon="101.207866" lat="14.602401">
                <ele>240.467041</ele>
                <time>2007-12-16T04:05:01Z</time>
            </trkpt>
            <trkpt lon="101.207783" lat="14.602388">
                <ele>240.947632</ele>
                <time>2007-12-16T04:05:05Z</time>
            </trkpt>
            <trkpt lon="101.207400" lat="14.602213">
                <ele>240.467041</ele>
                <time>2007-12-16T04:05:16Z</time>
            </trkpt>
            <trkpt lon="101.207091" lat="14.602073">
                <ele>241.428223</ele>
                <time>2007-12-16T04:05:26Z</time>
            </trkpt>
            <trkpt lon="101.206853" lat="14.601961">
                <ele>241.428223</ele>
                <time>2007-12-16T04:05:34Z</time>
            </trkpt>
            <trkpt lon="101.206683" lat="14.601956">
                <ele>241.428223</ele>
                <time>2007-12-16T04:05:40Z</time>
            </trkpt>
            <trkpt lon="101.206597" lat="14.602101">
                <ele>239.986206</ele>
                <time>2007-12-16T04:05:47Z</time>
            </trkpt>
            <trkpt lon="101.206468" lat="14.602395">
                <ele>239.986206</ele>
                <time>2007-12-16T04:05:55Z</time>
            </trkpt>
            <trkpt lon="101.206225" lat="14.602940">
                <ele>239.986206</ele>
                <time>2007-12-16T04:06:07Z</time>
            </trkpt>
            <trkpt lon="101.206066" lat="14.603291">
                <ele>240.467041</ele>
                <time>2007-12-16T04:06:15Z</time>
            </trkpt>
            <trkpt lon="101.205874" lat="14.603330">
                <ele>240.467041</ele>
                <time>2007-12-16T04:06:20Z</time>
            </trkpt>
            <trkpt lon="101.205143" lat="14.603210">
                <ele>239.986206</ele>
                <time>2007-12-16T04:06:34Z</time>
            </trkpt>
            <trkpt lon="101.204546" lat="14.603121">
                <ele>239.986206</ele>
                <time>2007-12-16T04:06:45Z</time>
            </trkpt>
            <trkpt lon="101.204330" lat="14.603101">
                <ele>240.467041</ele>
                <time>2007-12-16T04:06:50Z</time>
            </trkpt>
            <trkpt lon="101.204297" lat="14.602987">
                <ele>240.467041</ele>
                <time>2007-12-16T04:06:54Z</time>
            </trkpt>
            <trkpt lon="101.204356" lat="14.602618">
                <ele>240.467041</ele>
                <time>2007-12-16T04:07:03Z</time>
            </trkpt>
            <trkpt lon="101.204406" lat="14.602207">
                <ele>239.986206</ele>
                <time>2007-12-16T04:07:12Z</time>
            </trkpt>
            <trkpt lon="101.204468" lat="14.601722">
                <ele>239.024902</ele>
                <time>2007-12-16T04:07:22Z</time>
            </trkpt>
            <trkpt lon="101.204517" lat="14.601291">
                <ele>239.986206</ele>
                <time>2007-12-16T04:07:32Z</time>
            </trkpt>
            <trkpt lon="101.204519" lat="14.601209">
                <ele>241.428223</ele>
                <time>2007-12-16T04:07:35Z</time>
            </trkpt>
            <trkpt lon="101.204413" lat="14.601180">
                <ele>240.947632</ele>
                <time>2007-12-16T04:07:39Z</time>
            </trkpt>
            <trkpt lon="101.204096" lat="14.601125">
                <ele>240.947632</ele>
                <time>2007-12-16T04:07:46Z</time>
            </trkpt>
            <trkpt lon="101.203930" lat="14.600992">
                <ele>241.428223</ele>
                <time>2007-12-16T04:07:51Z</time>
            </trkpt>
            <trkpt lon="101.203784" lat="14.600826">
                <ele>244.792847</ele>
                <time>2007-12-16T04:07:58Z</time>
            </trkpt>
            <trkpt lon="101.203509" lat="14.600806">
                <ele>245.754150</ele>
                <time>2007-12-16T04:08:06Z</time>
            </trkpt>
            <trkpt lon="101.203082" lat="14.600826">
                <ele>246.234863</ele>
                <time>2007-12-16T04:08:17Z</time>
            </trkpt>
            <trkpt lon="101.202784" lat="14.600834">
                <ele>249.118774</ele>
                <time>2007-12-16T04:08:27Z</time>
            </trkpt>
            <trkpt lon="101.202575" lat="14.600841">
                <ele>250.080200</ele>
                <time>2007-12-16T04:08:35Z</time>
            </trkpt>
            <trkpt lon="101.202357" lat="14.600801">
                <ele>252.483398</ele>
                <time>2007-12-16T04:08:44Z</time>
            </trkpt>
            <trkpt lon="101.202086" lat="14.600724">
                <ele>252.963989</ele>
                <time>2007-12-16T04:08:55Z</time>
            </trkpt>
            <trkpt lon="101.201791" lat="14.600680">
                <ele>252.963989</ele>
                <time>2007-12-16T04:09:04Z</time>
            </trkpt>
            <trkpt lon="101.201489" lat="14.600633">
                <ele>253.444702</ele>
                <time>2007-12-16T04:09:12Z</time>
            </trkpt>
            <trkpt lon="101.200978" lat="14.600568">
                <ele>252.963989</ele>
                <time>2007-12-16T04:09:23Z</time>
            </trkpt>
            <trkpt lon="101.200627" lat="14.600527">
                <ele>252.963989</ele>
                <time>2007-12-16T04:09:31Z</time>
            </trkpt>
            <trkpt lon="101.200545" lat="14.600500">
                <ele>252.963989</ele>
                <time>2007-12-16T04:09:34Z</time>
            </trkpt>
            <trkpt lon="101.200390" lat="14.600344">
                <ele>252.002808</ele>
                <time>2007-12-16T04:09:41Z</time>
            </trkpt>
            <trkpt lon="101.200088" lat="14.600099">
                <ele>252.002808</ele>
                <time>2007-12-16T04:09:50Z</time>
            </trkpt>
            <trkpt lon="101.199782" lat="14.599858">
                <ele>252.002808</ele>
                <time>2007-12-16T04:10:00Z</time>
            </trkpt>
            <trkpt lon="101.199430" lat="14.599645">
                <ele>254.886597</ele>
                <time>2007-12-16T04:10:11Z</time>
            </trkpt>
            <trkpt lon="101.199183" lat="14.599549">
                <ele>256.809326</ele>
                <time>2007-12-16T04:10:18Z</time>
            </trkpt>
            <trkpt lon="101.198860" lat="14.599415">
                <ele>259.693359</ele>
                <time>2007-12-16T04:10:28Z</time>
            </trkpt>
            <trkpt lon="101.198607" lat="14.599252">
                <ele>259.693359</ele>
                <time>2007-12-16T04:10:38Z</time>
            </trkpt>
            <trkpt lon="101.198495" lat="14.599068">
                <ele>261.615967</ele>
                <time>2007-12-16T04:10:45Z</time>
            </trkpt>
            <trkpt lon="101.198392" lat="14.598872">
                <ele>263.057861</ele>
                <time>2007-12-16T04:10:53Z</time>
            </trkpt>
            <trkpt lon="101.198417" lat="14.598747">
                <ele>263.057861</ele>
                <time>2007-12-16T04:10:59Z</time>
            </trkpt>
            <trkpt lon="101.198624" lat="14.598553">
                <ele>263.057861</ele>
                <time>2007-12-16T04:11:07Z</time>
            </trkpt>
            <trkpt lon="101.198923" lat="14.598282">
                <ele>262.096558</ele>
                <time>2007-12-16T04:11:17Z</time>
            </trkpt>
            <trkpt lon="101.199200" lat="14.598005">
                <ele>259.212646</ele>
                <time>2007-12-16T04:11:24Z</time>
            </trkpt>
            <trkpt lon="101.199248" lat="14.597956">
                <ele>259.212646</ele>
                <time>2007-12-16T04:11:25Z</time>
            </trkpt>
            <trkpt lon="101.199526" lat="14.597665">
                <ele>256.328735</ele>
                <time>2007-12-16T04:11:30Z</time>
            </trkpt>
            <trkpt lon="101.199904" lat="14.597261">
                <ele>256.328735</ele>
                <time>2007-12-16T04:11:37Z</time>
            </trkpt>
            <trkpt lon="101.200242" lat="14.596883">
                <ele>257.290039</ele>
                <time>2007-12-16T04:11:45Z</time>
            </trkpt>
            <trkpt lon="101.200415" lat="14.596711">
                <ele>260.173950</ele>
                <time>2007-12-16T04:11:49Z</time>
            </trkpt>
            <trkpt lon="101.200459" lat="14.596675">
                <ele>260.173950</ele>
                <time>2007-12-16T04:11:50Z</time>
            </trkpt>
            <trkpt lon="101.200804" lat="14.596405">
                <ele>261.135254</ele>
                <time>2007-12-16T04:11:59Z</time>
            </trkpt>
            <trkpt lon="101.201218" lat="14.596087">
                <ele>259.212646</ele>
                <time>2007-12-16T04:12:09Z</time>
            </trkpt>
            <trkpt lon="101.201683" lat="14.595784">
                <ele>259.212646</ele>
                <time>2007-12-16T04:12:18Z</time>
            </trkpt>
            <trkpt lon="101.202170" lat="14.595504">
                <ele>259.693359</ele>
                <time>2007-12-16T04:12:28Z</time>
            </trkpt>
            <trkpt lon="101.202312" lat="14.595271">
                <ele>259.693359</ele>
                <time>2007-12-16T04:12:33Z</time>
            </trkpt>
            <trkpt lon="101.202307" lat="14.595210">
                <ele>259.212646</ele>
                <time>2007-12-16T04:12:34Z</time>
            </trkpt>
            <trkpt lon="101.202288" lat="14.595083">
                <ele>258.251343</ele>
                <time>2007-12-16T04:12:36Z</time>
            </trkpt>
            <trkpt lon="101.202223" lat="14.594663">
                <ele>254.886597</ele>
                <time>2007-12-16T04:12:42Z</time>
            </trkpt>
            <trkpt lon="101.202154" lat="14.594233">
                <ele>251.522095</ele>
                <time>2007-12-16T04:12:47Z</time>
            </trkpt>
            <trkpt lon="101.202124" lat="14.594044">
                <ele>251.041382</ele>
                <time>2007-12-16T04:12:49Z</time>
            </trkpt>
            <trkpt lon="101.202065" lat="14.593685">
                <ele>251.041382</ele>
                <time>2007-12-16T04:12:53Z</time>
            </trkpt>
            <trkpt lon="101.202012" lat="14.593486">
                <ele>252.963989</ele>
                <time>2007-12-16T04:12:56Z</time>
            </trkpt>
            <trkpt lon="101.201978" lat="14.593394">
                <ele>255.367310</ele>
                <time>2007-12-16T04:12:59Z</time>
            </trkpt>
            <trkpt lon="101.201968" lat="14.593332">
                <ele>256.328735</ele>
                <time>2007-12-16T04:13:06Z</time>
            </trkpt>
            <trkpt lon="101.201979" lat="14.593335">
                <ele>255.848022</ele>
                <time>2007-12-16T04:13:20Z</time>
            </trkpt>
            <trkpt lon="101.201978" lat="14.593338">
                <ele>255.367310</ele>
                <time>2007-12-16T04:13:53Z</time>
            </trkpt>
            <trkpt lon="101.201985" lat="14.593345">
                <ele>255.367310</ele>
                <time>2007-12-16T04:14:39Z</time>
            </trkpt>
            <trkpt lon="101.201968" lat="14.593363">
                <ele>255.367310</ele>
                <time>2007-12-16T04:14:55Z</time>
            </trkpt>
            <trkpt lon="101.201966" lat="14.593363">
                <ele>255.367310</ele>
                <time>2007-12-16T04:15:06Z</time>
            </trkpt>
            <trkpt lon="101.202019" lat="14.593530">
                <ele>253.925415</ele>
                <time>2007-12-16T04:15:13Z</time>
            </trkpt>
            <trkpt lon="101.202060" lat="14.593638">
                <ele>252.483398</ele>
                <time>2007-12-16T04:15:16Z</time>
            </trkpt>
            <trkpt lon="101.202208" lat="14.593670">
                <ele>251.522095</ele>
                <time>2007-12-16T04:15:22Z</time>
            </trkpt>
            <trkpt lon="101.202209" lat="14.593669">
                <ele>251.522095</ele>
                <time>2007-12-16T04:15:33Z</time>
            </trkpt>
            <trkpt lon="101.202322" lat="14.593657">
                <ele>251.041382</ele>
                <time>2007-12-16T04:15:38Z</time>
            </trkpt>
            <trkpt lon="101.202637" lat="14.593656">
                <ele>251.522095</ele>
                <time>2007-12-16T04:15:45Z</time>
            </trkpt>
            <trkpt lon="101.202963" lat="14.593669">
                <ele>251.522095</ele>
                <time>2007-12-16T04:15:52Z</time>
            </trkpt>
            <trkpt lon="101.203312" lat="14.593686">
                <ele>251.522095</ele>
                <time>2007-12-16T04:16:00Z</time>
            </trkpt>
            <trkpt lon="101.203559" lat="14.593654">
                <ele>252.483398</ele>
                <time>2007-12-16T04:16:07Z</time>
            </trkpt>
            <trkpt lon="101.203582" lat="14.593525">
                <ele>253.444702</ele>
                <time>2007-12-16T04:16:12Z</time>
            </trkpt>
            <trkpt lon="101.203484" lat="14.593293">
                <ele>252.963989</ele>
                <time>2007-12-16T04:16:21Z</time>
            </trkpt>
            <trkpt lon="101.203424" lat="14.593103">
                <ele>254.886597</ele>
                <time>2007-12-16T04:16:30Z</time>
            </trkpt>
            <trkpt lon="101.203396" lat="14.593005">
                <ele>256.809326</ele>
                <time>2007-12-16T04:16:36Z</time>
            </trkpt>
            <trkpt lon="101.203389" lat="14.592885">
                <ele>258.251343</ele>
                <time>2007-12-16T04:16:44Z</time>
            </trkpt>
            <trkpt lon="101.203446" lat="14.592758">
                <ele>259.212646</ele>
                <time>2007-12-16T04:16:53Z</time>
            </trkpt>
            <trkpt lon="101.203574" lat="14.592671">
                <ele>260.173950</ele>
                <time>2007-12-16T04:17:02Z</time>
            </trkpt>
            <trkpt lon="101.203785" lat="14.592570">
                <ele>262.096558</ele>
                <time>2007-12-16T04:17:12Z</time>
            </trkpt>
            <trkpt lon="101.204050" lat="14.592433">
                <ele>260.654541</ele>
                <time>2007-12-16T04:17:22Z</time>
            </trkpt>
            <trkpt lon="101.204116" lat="14.592402">
                <ele>259.693359</ele>
                <time>2007-12-16T04:17:24Z</time>
            </trkpt>
            <trkpt lon="101.204349" lat="14.592293">
                <ele>258.251343</ele>
                <time>2007-12-16T04:17:30Z</time>
            </trkpt>
            <trkpt lon="101.204702" lat="14.592058">
                <ele>255.848022</ele>
                <time>2007-12-16T04:17:38Z</time>
            </trkpt>
            <trkpt lon="101.204921" lat="14.591940">
                <ele>257.290039</ele>
                <time>2007-12-16T04:17:44Z</time>
            </trkpt>
            <trkpt lon="101.205199" lat="14.591772">
                <ele>258.731934</ele>
                <time>2007-12-16T04:17:53Z</time>
            </trkpt>
            <trkpt lon="101.205358" lat="14.591683">
                <ele>261.135254</ele>
                <time>2007-12-16T04:18:01Z</time>
            </trkpt>
            <trkpt lon="101.205427" lat="14.591561">
                <ele>261.615967</ele>
                <time>2007-12-16T04:18:08Z</time>
            </trkpt>
            <trkpt lon="101.205356" lat="14.591387">
                <ele>261.615967</ele>
                <time>2007-12-16T04:18:15Z</time>
            </trkpt>
            <trkpt lon="101.205189" lat="14.591121">
                <ele>260.654541</ele>
                <time>2007-12-16T04:18:23Z</time>
            </trkpt>
            <trkpt lon="101.205081" lat="14.590990">
                <ele>261.135254</ele>
                <time>2007-12-16T04:18:27Z</time>
            </trkpt>
            <trkpt lon="101.204776" lat="14.590776">
                <ele>262.577148</ele>
                <time>2007-12-16T04:18:36Z</time>
            </trkpt>
            <trkpt lon="101.204537" lat="14.590798">
                <ele>263.538574</ele>
                <time>2007-12-16T04:18:42Z</time>
            </trkpt>
            <trkpt lon="101.204201" lat="14.591069">
                <ele>261.615967</ele>
                <time>2007-12-16T04:18:51Z</time>
            </trkpt>
            <trkpt lon="101.204070" lat="14.591118">
                <ele>262.577148</ele>
                <time>2007-12-16T04:18:55Z</time>
            </trkpt>
            <trkpt lon="101.204052" lat="14.591068">
                <ele>262.577148</ele>
                <time>2007-12-16T04:18:57Z</time>
            </trkpt>
            <trkpt lon="101.203989" lat="14.590906">
                <ele>264.019287</ele>
                <time>2007-12-16T04:19:04Z</time>
            </trkpt>
            <trkpt lon="101.203919" lat="14.590773">
                <ele>264.980591</ele>
                <time>2007-12-16T04:19:11Z</time>
            </trkpt>
            <trkpt lon="101.203846" lat="14.590655">
                <ele>266.422485</ele>
                <time>2007-12-16T04:19:19Z</time>
            </trkpt>
            <trkpt lon="101.203840" lat="14.590639">
                <ele>266.422485</ele>
                <time>2007-12-16T04:19:20Z</time>
            </trkpt>
            <trkpt lon="101.203788" lat="14.590555">
                <ele>267.864502</ele>
                <time>2007-12-16T04:19:26Z</time>
            </trkpt>
            <trkpt lon="101.203736" lat="14.590410">
                <ele>269.306519</ele>
                <time>2007-12-16T04:19:36Z</time>
            </trkpt>
            <trkpt lon="101.203657" lat="14.590302">
                <ele>270.267700</ele>
                <time>2007-12-16T04:19:45Z</time>
            </trkpt>
            <trkpt lon="101.203622" lat="14.590233">
                <ele>270.748413</ele>
                <time>2007-12-16T04:19:50Z</time>
            </trkpt>
            <trkpt lon="101.203562" lat="14.590086">
                <ele>271.229126</ele>
                <time>2007-12-16T04:19:59Z</time>
            </trkpt>
            <trkpt lon="101.203458" lat="14.589888">
                <ele>271.229126</ele>
                <time>2007-12-16T04:20:07Z</time>
            </trkpt>
            <trkpt lon="101.203394" lat="14.589719">
                <ele>271.709717</ele>
                <time>2007-12-16T04:20:13Z</time>
            </trkpt>
            <trkpt lon="101.203286" lat="14.589481">
                <ele>272.671143</ele>
                <time>2007-12-16T04:20:21Z</time>
            </trkpt>
            <trkpt lon="101.203261" lat="14.589271">
                <ele>271.709717</ele>
                <time>2007-12-16T04:20:27Z</time>
            </trkpt>
            <trkpt lon="101.203169" lat="14.589091">
                <ele>271.709717</ele>
                <time>2007-12-16T04:20:33Z</time>
            </trkpt>
            <trkpt lon="101.203169" lat="14.589026">
                <ele>271.229126</ele>
                <time>2007-12-16T04:20:35Z</time>
            </trkpt>
            <trkpt lon="101.203364" lat="14.588908">
                <ele>270.748413</ele>
                <time>2007-12-16T04:20:41Z</time>
            </trkpt>
            <trkpt lon="101.203800" lat="14.588685">
                <ele>269.306519</ele>
                <time>2007-12-16T04:20:51Z</time>
            </trkpt>
            <trkpt lon="101.204318" lat="14.588405">
                <ele>267.383911</ele>
                <time>2007-12-16T04:21:01Z</time>
            </trkpt>
            <trkpt lon="101.204365" lat="14.588371">
                <ele>267.383911</ele>
                <time>2007-12-16T04:21:02Z</time>
            </trkpt>
            <trkpt lon="101.204459" lat="14.588131">
                <ele>267.383911</ele>
                <time>2007-12-16T04:21:07Z</time>
            </trkpt>
            <trkpt lon="101.204453" lat="14.588077">
                <ele>267.383911</ele>
                <time>2007-12-16T04:21:08Z</time>
            </trkpt>
            <trkpt lon="101.204364" lat="14.587561">
                <ele>267.383911</ele>
                <time>2007-12-16T04:21:17Z</time>
            </trkpt>
            <trkpt lon="101.204282" lat="14.586886">
                <ele>264.980591</ele>
                <time>2007-12-16T04:21:28Z</time>
            </trkpt>
            <trkpt lon="101.204283" lat="14.586242">
                <ele>263.057861</ele>
                <time>2007-12-16T04:21:37Z</time>
            </trkpt>
            <trkpt lon="101.204304" lat="14.585678">
                <ele>259.212646</ele>
                <time>2007-12-16T04:21:44Z</time>
            </trkpt>
            <trkpt lon="101.204307" lat="14.585497">
                <ele>258.731934</ele>
                <time>2007-12-16T04:21:46Z</time>
            </trkpt>
            <trkpt lon="101.204307" lat="14.585311">
                <ele>256.328735</ele>
                <time>2007-12-16T04:21:48Z</time>
            </trkpt>
            <trkpt lon="101.204226" lat="14.584613">
                <ele>258.731934</ele>
                <time>2007-12-16T04:21:56Z</time>
            </trkpt>
            <trkpt lon="101.204207" lat="14.584536">
                <ele>258.731934</ele>
                <time>2007-12-16T04:21:57Z</time>
            </trkpt>
            <trkpt lon="101.204123" lat="14.584051">
                <ele>260.173950</ele>
                <time>2007-12-16T04:22:04Z</time>
            </trkpt>
            <trkpt lon="101.204009" lat="14.583499">
                <ele>259.212646</ele>
                <time>2007-12-16T04:22:12Z</time>
            </trkpt>
            <trkpt lon="101.203877" lat="14.582810">
                <ele>257.770752</ele>
                <time>2007-12-16T04:22:21Z</time>
            </trkpt>
            <trkpt lon="101.203749" lat="14.582169">
                <ele>258.251343</ele>
                <time>2007-12-16T04:22:30Z</time>
            </trkpt>
            <trkpt lon="101.203688" lat="14.581792">
                <ele>260.173950</ele>
                <time>2007-12-16T04:22:37Z</time>
            </trkpt>
            <trkpt lon="101.203664" lat="14.581488">
                <ele>262.577148</ele>
                <time>2007-12-16T04:22:45Z</time>
            </trkpt>
            <trkpt lon="101.203633" lat="14.581227">
                <ele>264.019287</ele>
                <time>2007-12-16T04:22:54Z</time>
            </trkpt>
            <trkpt lon="101.203591" lat="14.580955">
                <ele>265.941895</ele>
                <time>2007-12-16T04:23:04Z</time>
            </trkpt>
            <trkpt lon="101.203566" lat="14.580711">
                <ele>265.941895</ele>
                <time>2007-12-16T04:23:13Z</time>
            </trkpt>
            <trkpt lon="101.203613" lat="14.580486">
                <ele>263.538574</ele>
                <time>2007-12-16T04:23:20Z</time>
            </trkpt>
            <trkpt lon="101.203649" lat="14.580449">
                <ele>263.538574</ele>
                <time>2007-12-16T04:23:22Z</time>
            </trkpt>
            <trkpt lon="101.203721" lat="14.580429">
                <ele>263.057861</ele>
                <time>2007-12-16T04:23:27Z</time>
            </trkpt>
            <trkpt lon="101.203898" lat="14.580440">
                <ele>264.499878</ele>
                <time>2007-12-16T04:23:35Z</time>
            </trkpt>
            <trkpt lon="101.204129" lat="14.580414">
                <ele>264.019287</ele>
                <time>2007-12-16T04:23:42Z</time>
            </trkpt>
            <trkpt lon="101.204255" lat="14.580381">
                <ele>262.096558</ele>
                <time>2007-12-16T04:23:45Z</time>
            </trkpt>
            <trkpt lon="101.204628" lat="14.580288">
                <ele>260.654541</ele>
                <time>2007-12-16T04:23:52Z</time>
            </trkpt>
            <trkpt lon="101.204741" lat="14.580263">
                <ele>259.693359</ele>
                <time>2007-12-16T04:23:54Z</time>
            </trkpt>
            <trkpt lon="101.204833" lat="14.580228">
                <ele>258.731934</ele>
                <time>2007-12-16T04:23:56Z</time>
            </trkpt>
            <trkpt lon="101.205030" lat="14.580134">
                <ele>256.328735</ele>
                <time>2007-12-16T04:24:01Z</time>
            </trkpt>
            <trkpt lon="101.205216" lat="14.579925">
                <ele>256.809326</ele>
                <time>2007-12-16T04:24:07Z</time>
            </trkpt>
            <trkpt lon="101.205337" lat="14.579755">
                <ele>256.809326</ele>
                <time>2007-12-16T04:24:12Z</time>
            </trkpt>
            <trkpt lon="101.205454" lat="14.579767">
                <ele>256.809326</ele>
                <time>2007-12-16T04:24:16Z</time>
            </trkpt>
            <trkpt lon="101.205613" lat="14.579833">
                <ele>256.809326</ele>
                <time>2007-12-16T04:24:20Z</time>
            </trkpt>
            <trkpt lon="101.206014" lat="14.579863">
                <ele>256.328735</ele>
                <time>2007-12-16T04:24:28Z</time>
            </trkpt>
            <trkpt lon="101.206415" lat="14.579943">
                <ele>256.809326</ele>
                <time>2007-12-16T04:24:37Z</time>
            </trkpt>
            <trkpt lon="101.206764" lat="14.580022">
                <ele>256.809326</ele>
                <time>2007-12-16T04:24:44Z</time>
            </trkpt>
            <trkpt lon="101.207210" lat="14.580023">
                <ele>256.328735</ele>
                <time>2007-12-16T04:24:52Z</time>
            </trkpt>
            <trkpt lon="101.207649" lat="14.579963">
                <ele>257.290039</ele>
                <time>2007-12-16T04:25:00Z</time>
            </trkpt>
            <trkpt lon="101.207941" lat="14.579870">
                <ele>259.693359</ele>
                <time>2007-12-16T04:25:08Z</time>
            </trkpt>
            <trkpt lon="101.208045" lat="14.579824">
                <ele>260.173950</ele>
                <time>2007-12-16T04:25:15Z</time>
            </trkpt>
            <trkpt lon="101.208041" lat="14.579820">
                <ele>259.212646</ele>
                <time>2007-12-16T04:25:31Z</time>
            </trkpt>
            <trkpt lon="101.208143" lat="14.579767">
                <ele>259.212646</ele>
                <time>2007-12-16T04:25:37Z</time>
            </trkpt>
            <trkpt lon="101.208527" lat="14.579636">
                <ele>258.251343</ele>
                <time>2007-12-16T04:25:46Z</time>
            </trkpt>
            <trkpt lon="101.208804" lat="14.579522">
                <ele>257.770752</ele>
                <time>2007-12-16T04:25:52Z</time>
            </trkpt>
            <trkpt lon="101.209255" lat="14.579339">
                <ele>259.693359</ele>
                <time>2007-12-16T04:26:02Z</time>
            </trkpt>
            <trkpt lon="101.209714" lat="14.579156">
                <ele>258.251343</ele>
                <time>2007-12-16T04:26:11Z</time>
            </trkpt>
            <trkpt lon="101.210103" lat="14.578982">
                <ele>259.693359</ele>
                <time>2007-12-16T04:26:19Z</time>
            </trkpt>
            <trkpt lon="101.210600" lat="14.578911">
                <ele>260.173950</ele>
                <time>2007-12-16T04:26:29Z</time>
            </trkpt>
            <trkpt lon="101.211035" lat="14.578892">
                <ele>260.173950</ele>
                <time>2007-12-16T04:26:38Z</time>
            </trkpt>
            <trkpt lon="101.211430" lat="14.578946">
                <ele>261.615967</ele>
                <time>2007-12-16T04:26:47Z</time>
            </trkpt>
            <trkpt lon="101.211873" lat="14.579095">
                <ele>261.135254</ele>
                <time>2007-12-16T04:26:58Z</time>
            </trkpt>
            <trkpt lon="101.212260" lat="14.579207">
                <ele>262.096558</ele>
                <time>2007-12-16T04:27:08Z</time>
            </trkpt>
            <trkpt lon="101.212686" lat="14.579317">
                <ele>264.019287</ele>
                <time>2007-12-16T04:27:19Z</time>
            </trkpt>
            <trkpt lon="101.212874" lat="14.579358">
                <ele>262.577148</ele>
                <time>2007-12-16T04:27:23Z</time>
            </trkpt>
            <trkpt lon="101.213365" lat="14.579404">
                <ele>260.654541</ele>
                <time>2007-12-16T04:27:31Z</time>
            </trkpt>
            <trkpt lon="101.213818" lat="14.579498">
                <ele>259.693359</ele>
                <time>2007-12-16T04:27:38Z</time>
            </trkpt>
            <trkpt lon="101.214187" lat="14.579726">
                <ele>259.693359</ele>
                <time>2007-12-16T04:27:45Z</time>
            </trkpt>
            <trkpt lon="101.214482" lat="14.579859">
                <ele>258.731934</ele>
                <time>2007-12-16T04:27:50Z</time>
            </trkpt>
            <trkpt lon="101.215070" lat="14.580125">
                <ele>260.173950</ele>
                <time>2007-12-16T04:28:00Z</time>
            </trkpt>
            <trkpt lon="101.215357" lat="14.580268">
                <ele>260.654541</ele>
                <time>2007-12-16T04:28:07Z</time>
            </trkpt>
            <trkpt lon="101.215578" lat="14.580387">
                <ele>261.135254</ele>
                <time>2007-12-16T04:28:15Z</time>
            </trkpt>
            <trkpt lon="101.215654" lat="14.580415">
                <ele>261.135254</ele>
                <time>2007-12-16T04:28:20Z</time>
            </trkpt>
            <trkpt lon="101.215664" lat="14.580414">
                <ele>261.135254</ele>
                <time>2007-12-16T04:28:39Z</time>
            </trkpt>
            <trkpt lon="101.215670" lat="14.580406">
                <ele>260.654541</ele>
                <time>2007-12-16T04:28:49Z</time>
            </trkpt>
            <trkpt lon="101.215691" lat="14.580387">
                <ele>261.135254</ele>
                <time>2007-12-16T04:28:56Z</time>
            </trkpt>
            <trkpt lon="101.215740" lat="14.580360">
                <ele>261.135254</ele>
                <time>2007-12-16T04:29:05Z</time>
            </trkpt>
            <trkpt lon="101.215747" lat="14.580350">
                <ele>261.615967</ele>
                <time>2007-12-16T04:29:17Z</time>
            </trkpt>
            <trkpt lon="101.215751" lat="14.580344">
                <ele>261.615967</ele>
                <time>2007-12-16T04:29:24Z</time>
            </trkpt>
            <trkpt lon="101.215735" lat="14.580280">
                <ele>261.135254</ele>
                <time>2007-12-16T04:29:28Z</time>
            </trkpt>
            <trkpt lon="101.215517" lat="14.580029">
                <ele>259.693359</ele>
                <time>2007-12-16T04:29:38Z</time>
            </trkpt>
            <trkpt lon="101.215459" lat="14.579961">
                <ele>258.731934</ele>
                <time>2007-12-16T04:29:40Z</time>
            </trkpt>
            <trkpt lon="101.215138" lat="14.579678">
                <ele>259.212646</ele>
                <time>2007-12-16T04:29:49Z</time>
            </trkpt>
            <trkpt lon="101.214898" lat="14.579551">
                <ele>259.693359</ele>
                <time>2007-12-16T04:29:56Z</time>
            </trkpt>
            <trkpt lon="101.214810" lat="14.579469">
                <ele>259.693359</ele>
                <time>2007-12-16T04:29:59Z</time>
            </trkpt>
            <trkpt lon="101.214672" lat="14.579142">
                <ele>261.135254</ele>
                <time>2007-12-16T04:30:08Z</time>
            </trkpt>
            <trkpt lon="101.214644" lat="14.578798">
                <ele>260.654541</ele>
                <time>2007-12-16T04:30:16Z</time>
            </trkpt>
            <trkpt lon="101.214488" lat="14.578289">
                <ele>262.577148</ele>
                <time>2007-12-16T04:30:28Z</time>
            </trkpt>
            <trkpt lon="101.214355" lat="14.577948">
                <ele>264.499878</ele>
                <time>2007-12-16T04:30:38Z</time>
            </trkpt>
            <trkpt lon="101.214341" lat="14.577807">
                <ele>266.422485</ele>
                <time>2007-12-16T04:30:45Z</time>
            </trkpt>
            <trkpt lon="101.214397" lat="14.577727">
                <ele>267.864502</ele>
                <time>2007-12-16T04:30:53Z</time>
            </trkpt>
            <trkpt lon="101.214495" lat="14.577617">
                <ele>269.306519</ele>
                <time>2007-12-16T04:31:05Z</time>
            </trkpt>
            <trkpt lon="101.214571" lat="14.577541">
                <ele>271.709717</ele>
                <time>2007-12-16T04:31:15Z</time>
            </trkpt>
            <trkpt lon="101.214572" lat="14.577547">
                <ele>272.190430</ele>
                <time>2007-12-16T04:31:24Z</time>
            </trkpt>
            <trkpt lon="101.214595" lat="14.577535">
                <ele>271.709717</ele>
                <time>2007-12-16T04:31:35Z</time>
            </trkpt>
            <trkpt lon="101.214635" lat="14.577503">
                <ele>272.190430</ele>
                <time>2007-12-16T04:31:43Z</time>
            </trkpt>
            <trkpt lon="101.214720" lat="14.577450">
                <ele>275.555054</ele>
                <time>2007-12-16T04:31:55Z</time>
            </trkpt>
            <trkpt lon="101.214776" lat="14.577424">
                <ele>276.516357</ele>
                <time>2007-12-16T04:32:06Z</time>
            </trkpt>
            <trkpt lon="101.214799" lat="14.577421">
                <ele>276.516357</ele>
                <time>2007-12-16T04:32:13Z</time>
            </trkpt>
            <trkpt lon="101.214825" lat="14.577424">
                <ele>276.516357</ele>
                <time>2007-12-16T04:32:20Z</time>
            </trkpt>
            <trkpt lon="101.214852" lat="14.577423">
                <ele>276.035645</ele>
                <time>2007-12-16T04:32:25Z</time>
            </trkpt>
            <trkpt lon="101.215010" lat="14.577399">
                <ele>276.516357</ele>
                <time>2007-12-16T04:32:33Z</time>
            </trkpt>
            <trkpt lon="101.215107" lat="14.577427">
                <ele>276.516357</ele>
                <time>2007-12-16T04:32:37Z</time>
            </trkpt>
            <trkpt lon="101.215213" lat="14.577484">
                <ele>276.035645</ele>
                <time>2007-12-16T04:32:40Z</time>
            </trkpt>
            <trkpt lon="101.215406" lat="14.577491">
                <ele>276.035645</ele>
                <time>2007-12-16T04:32:45Z</time>
            </trkpt>
            <trkpt lon="101.215429" lat="14.577485">
                <ele>276.035645</ele>
                <time>2007-12-16T04:32:46Z</time>
            </trkpt>
            <trkpt lon="101.215622" lat="14.577441">
                <ele>277.958252</ele>
                <time>2007-12-16T04:32:55Z</time>
            </trkpt>
            <trkpt lon="101.215745" lat="14.577405">
                <ele>280.842407</ele>
                <time>2007-12-16T04:33:02Z</time>
            </trkpt>
            <trkpt lon="101.215907" lat="14.577370">
                <ele>283.726196</ele>
                <time>2007-12-16T04:33:12Z</time>
            </trkpt>
            <trkpt lon="101.216034" lat="14.577344">
                <ele>283.726196</ele>
                <time>2007-12-16T04:33:19Z</time>
            </trkpt>
            <trkpt lon="101.216143" lat="14.577389">
                <ele>284.206909</ele>
                <time>2007-12-16T04:33:24Z</time>
            </trkpt>
            <trkpt lon="101.216316" lat="14.577466">
                <ele>283.726196</ele>
                <time>2007-12-16T04:33:32Z</time>
            </trkpt>
            <trkpt lon="101.216551" lat="14.577492">
                <ele>284.687622</ele>
                <time>2007-12-16T04:33:40Z</time>
            </trkpt>
            <trkpt lon="101.216814" lat="14.577454">
                <ele>285.648804</ele>
                <time>2007-12-16T04:33:50Z</time>
            </trkpt>
            <trkpt lon="101.217040" lat="14.577296">
                <ele>285.168213</ele>
                <time>2007-12-16T04:33:59Z</time>
            </trkpt>
            <trkpt lon="101.217244" lat="14.577125">
                <ele>285.168213</ele>
                <time>2007-12-16T04:34:07Z</time>
            </trkpt>
            <trkpt lon="101.217396" lat="14.577082">
                <ele>285.168213</ele>
                <time>2007-12-16T04:34:11Z</time>
            </trkpt>
            <trkpt lon="101.217552" lat="14.577025">
                <ele>285.168213</ele>
                <time>2007-12-16T04:34:15Z</time>
            </trkpt>
            <trkpt lon="101.217842" lat="14.576921">
                <ele>283.726196</ele>
                <time>2007-12-16T04:34:22Z</time>
            </trkpt>
            <trkpt lon="101.218022" lat="14.576908">
                <ele>280.842407</ele>
                <time>2007-12-16T04:34:25Z</time>
            </trkpt>
            <trkpt lon="101.218186" lat="14.576913">
                <ele>284.687622</ele>
                <time>2007-12-16T04:34:29Z</time>
            </trkpt>
            <trkpt lon="101.218218" lat="14.576914">
                <ele>284.206909</ele>
                <time>2007-12-16T04:34:30Z</time>
            </trkpt>
            <trkpt lon="101.218442" lat="14.576973">
                <ele>284.687622</ele>
                <time>2007-12-16T04:34:37Z</time>
            </trkpt>
            <trkpt lon="101.218740" lat="14.576999">
                <ele>283.245605</ele>
                <time>2007-12-16T04:34:44Z</time>
            </trkpt>
            <trkpt lon="101.218899" lat="14.577014">
                <ele>281.322998</ele>
                <time>2007-12-16T04:34:47Z</time>
            </trkpt>
            <trkpt lon="101.218953" lat="14.577017">
                <ele>280.361694</ele>
                <time>2007-12-16T04:34:48Z</time>
            </trkpt>
            <trkpt lon="101.219136" lat="14.576962">
                <ele>280.842407</ele>
                <time>2007-12-16T04:34:52Z</time>
            </trkpt>
            <trkpt lon="101.219413" lat="14.576802">
                <ele>282.765015</ele>
                <time>2007-12-16T04:35:01Z</time>
            </trkpt>
            <trkpt lon="101.219687" lat="14.576686">
                <ele>282.765015</ele>
                <time>2007-12-16T04:35:09Z</time>
            </trkpt>
            <trkpt lon="101.219844" lat="14.576620">
                <ele>281.322998</ele>
                <time>2007-12-16T04:35:13Z</time>
            </trkpt>
            <trkpt lon="101.220118" lat="14.576455">
                <ele>280.361694</ele>
                <time>2007-12-16T04:35:21Z</time>
            </trkpt>
            <trkpt lon="101.220153" lat="14.576433">
                <ele>280.361694</ele>
                <time>2007-12-16T04:35:22Z</time>
            </trkpt>
            <trkpt lon="101.220396" lat="14.576241">
                <ele>281.322998</ele>
                <time>2007-12-16T04:35:30Z</time>
            </trkpt>
            <trkpt lon="101.220496" lat="14.576198">
                <ele>282.284302</ele>
                <time>2007-12-16T04:35:36Z</time>
            </trkpt>
            <trkpt lon="101.220531" lat="14.576179">
                <ele>282.284302</ele>
                <time>2007-12-16T04:35:38Z</time>
            </trkpt>
            <trkpt lon="101.220540" lat="14.576124">
                <ele>283.726196</ele>
                <time>2007-12-16T04:35:42Z</time>
            </trkpt>
            <trkpt lon="101.220482" lat="14.575970">
                <ele>287.571411</ele>
                <time>2007-12-16T04:35:55Z</time>
            </trkpt>
            <trkpt lon="101.220504" lat="14.575842">
                <ele>288.532959</ele>
                <time>2007-12-16T04:36:06Z</time>
            </trkpt>
            <trkpt lon="101.220516" lat="14.575701">
                <ele>290.455566</ele>
                <time>2007-12-16T04:36:17Z</time>
            </trkpt>
            <trkpt lon="101.220522" lat="14.575662">
                <ele>292.378174</ele>
                <time>2007-12-16T04:36:20Z</time>
            </trkpt>
            <trkpt lon="101.220540" lat="14.575535">
                <ele>291.416748</ele>
                <time>2007-12-16T04:36:29Z</time>
            </trkpt>
            <trkpt lon="101.220581" lat="14.575381">
                <ele>291.897461</ele>
                <time>2007-12-16T04:36:38Z</time>
            </trkpt>
            <trkpt lon="101.220675" lat="14.575244">
                <ele>291.416748</ele>
                <time>2007-12-16T04:36:45Z</time>
            </trkpt>
            <trkpt lon="101.220779" lat="14.575078">
                <ele>289.974854</ele>
                <time>2007-12-16T04:36:52Z</time>
            </trkpt>
            <trkpt lon="101.220821" lat="14.575020">
                <ele>289.013550</ele>
                <time>2007-12-16T04:36:54Z</time>
            </trkpt>
            <trkpt lon="101.221014" lat="14.574781">
                <ele>287.090820</ele>
                <time>2007-12-16T04:37:01Z</time>
            </trkpt>
            <trkpt lon="101.221136" lat="14.574612">
                <ele>286.610229</ele>
                <time>2007-12-16T04:37:07Z</time>
            </trkpt>
            <trkpt lon="101.221208" lat="14.574541">
                <ele>285.648804</ele>
                <time>2007-12-16T04:37:13Z</time>
            </trkpt>
            <trkpt lon="101.221224" lat="14.574542">
                <ele>285.648804</ele>
                <time>2007-12-16T04:37:24Z</time>
            </trkpt>
            <trkpt lon="101.221261" lat="14.574490">
                <ele>284.687622</ele>
                <time>2007-12-16T04:37:30Z</time>
            </trkpt>
            <trkpt lon="101.221308" lat="14.574425">
                <ele>285.168213</ele>
                <time>2007-12-16T04:37:39Z</time>
            </trkpt>
            <trkpt lon="101.221329" lat="14.574411">
                <ele>284.687622</ele>
                <time>2007-12-16T04:37:41Z</time>
            </trkpt>
            <trkpt lon="101.221424" lat="14.574404">
                <ele>282.765015</ele>
                <time>2007-12-16T04:37:50Z</time>
            </trkpt>
            <trkpt lon="101.221523" lat="14.574408">
                <ele>283.245605</ele>
                <time>2007-12-16T04:38:01Z</time>
            </trkpt>
            <trkpt lon="101.221578" lat="14.574414">
                <ele>282.284302</ele>
                <time>2007-12-16T04:38:08Z</time>
            </trkpt>
            <trkpt lon="101.221590" lat="14.574416">
                <ele>282.284302</ele>
                <time>2007-12-16T04:38:15Z</time>
            </trkpt>
            <trkpt lon="101.221662" lat="14.574433">
                <ele>282.284302</ele>
                <time>2007-12-16T04:38:20Z</time>
            </trkpt>
            <trkpt lon="101.221863" lat="14.574446">
                <ele>280.842407</ele>
                <time>2007-12-16T04:38:28Z</time>
            </trkpt>
            <trkpt lon="101.221988" lat="14.574444">
                <ele>280.361694</ele>
                <time>2007-12-16T04:38:32Z</time>
            </trkpt>
            <trkpt lon="101.222234" lat="14.574462">
                <ele>277.958252</ele>
                <time>2007-12-16T04:38:40Z</time>
            </trkpt>
            <trkpt lon="101.222295" lat="14.574445">
                <ele>278.438965</ele>
                <time>2007-12-16T04:38:45Z</time>
            </trkpt>
            <trkpt lon="101.222305" lat="14.574407">
                <ele>277.958252</ele>
                <time>2007-12-16T04:38:52Z</time>
            </trkpt>
            <trkpt lon="101.222299" lat="14.574341">
                <ele>278.438965</ele>
                <time>2007-12-16T04:39:03Z</time>
            </trkpt>
            <trkpt lon="101.222296" lat="14.574304">
                <ele>278.438965</ele>
                <time>2007-12-16T04:39:13Z</time>
            </trkpt>
            <trkpt lon="101.222266" lat="14.574239">
                <ele>278.919678</ele>
                <time>2007-12-16T04:39:23Z</time>
            </trkpt>
            <trkpt lon="101.222265" lat="14.574196">
                <ele>278.919678</ele>
                <time>2007-12-16T04:39:33Z</time>
            </trkpt>
            <trkpt lon="101.222250" lat="14.574168">
                <ele>278.919678</ele>
                <time>2007-12-16T04:39:41Z</time>
            </trkpt>
            <trkpt lon="101.222218" lat="14.574155">
                <ele>279.400269</ele>
                <time>2007-12-16T04:39:48Z</time>
            </trkpt>
            <trkpt lon="101.222165" lat="14.574153">
                <ele>278.919678</ele>
                <time>2007-12-16T04:39:57Z</time>
            </trkpt>
            <trkpt lon="101.222144" lat="14.574136">
                <ele>278.919678</ele>
                <time>2007-12-16T04:40:06Z</time>
            </trkpt>
            <trkpt lon="101.222144" lat="14.574120">
                <ele>279.400269</ele>
                <time>2007-12-16T04:40:13Z</time>
            </trkpt>
            <trkpt lon="101.222188" lat="14.574107">
                <ele>279.400269</ele>
                <time>2007-12-16T04:40:22Z</time>
            </trkpt>
            <trkpt lon="101.222245" lat="14.574074">
                <ele>279.880859</ele>
                <time>2007-12-16T04:40:30Z</time>
            </trkpt>
            <trkpt lon="101.222279" lat="14.574079">
                <ele>279.400269</ele>
                <time>2007-12-16T04:40:37Z</time>
            </trkpt>
            <trkpt lon="101.222344" lat="14.574075">
                <ele>280.361694</ele>
                <time>2007-12-16T04:40:47Z</time>
            </trkpt>
            <trkpt lon="101.222384" lat="14.574058">
                <ele>280.361694</ele>
                <time>2007-12-16T04:40:55Z</time>
            </trkpt>
            <trkpt lon="101.222455" lat="14.574052">
                <ele>281.803589</ele>
                <time>2007-12-16T04:41:06Z</time>
            </trkpt>
            <trkpt lon="101.222524" lat="14.574047">
                <ele>281.803589</ele>
                <time>2007-12-16T04:41:16Z</time>
            </trkpt>
            <trkpt lon="101.222596" lat="14.574030">
                <ele>283.245605</ele>
                <time>2007-12-16T04:41:26Z</time>
            </trkpt>
            <trkpt lon="101.222663" lat="14.574012">
                <ele>283.245605</ele>
                <time>2007-12-16T04:41:35Z</time>
            </trkpt>
            <trkpt lon="101.222712" lat="14.574000">
                <ele>284.687622</ele>
                <time>2007-12-16T04:41:43Z</time>
            </trkpt>
            <trkpt lon="101.222728" lat="14.573996">
                <ele>284.687622</ele>
                <time>2007-12-16T04:41:57Z</time>
            </trkpt>
            <trkpt lon="101.222808" lat="14.573976">
                <ele>285.168213</ele>
                <time>2007-12-16T04:42:08Z</time>
            </trkpt>
            <trkpt lon="101.222891" lat="14.573952">
                <ele>286.129517</ele>
                <time>2007-12-16T04:42:19Z</time>
            </trkpt>
            <trkpt lon="101.222939" lat="14.573944">
                <ele>286.129517</ele>
                <time>2007-12-16T04:42:27Z</time>
            </trkpt>
            <trkpt lon="101.222974" lat="14.573919">
                <ele>288.052246</ele>
                <time>2007-12-16T04:42:36Z</time>
            </trkpt>
            <trkpt lon="101.222990" lat="14.573906">
                <ele>288.532959</ele>
                <time>2007-12-16T04:42:42Z</time>
            </trkpt>
            <trkpt lon="101.223007" lat="14.573896">
                <ele>288.532959</ele>
                <time>2007-12-16T04:42:48Z</time>
            </trkpt>
            <trkpt lon="101.223002" lat="14.573891">
                <ele>289.974854</ele>
                <time>2007-12-16T04:43:18Z</time>
            </trkpt>
            <trkpt lon="101.222981" lat="14.573892">
                <ele>289.494141</ele>
                <time>2007-12-16T04:43:23Z</time>
            </trkpt>
            <trkpt lon="101.222972" lat="14.573876">
                <ele>289.013550</ele>
                <time>2007-12-16T04:43:30Z</time>
            </trkpt>
            <trkpt lon="101.222933" lat="14.573808">
                <ele>289.013550</ele>
                <time>2007-12-16T04:43:36Z</time>
            </trkpt>
            <trkpt lon="101.222914" lat="14.573672">
                <ele>289.494141</ele>
                <time>2007-12-16T04:43:44Z</time>
            </trkpt>
            <trkpt lon="101.222931" lat="14.573559">
                <ele>291.897461</ele>
                <time>2007-12-16T04:43:52Z</time>
            </trkpt>
            <trkpt lon="101.222981" lat="14.573424">
                <ele>292.378174</ele>
                <time>2007-12-16T04:44:02Z</time>
            </trkpt>
            <trkpt lon="101.223055" lat="14.573294">
                <ele>293.820068</ele>
                <time>2007-12-16T04:44:14Z</time>
            </trkpt>
            <trkpt lon="101.223128" lat="14.573249">
                <ele>295.261963</ele>
                <time>2007-12-16T04:44:22Z</time>
            </trkpt>
            <trkpt lon="101.223249" lat="14.573244">
                <ele>296.704102</ele>
                <time>2007-12-16T04:44:32Z</time>
            </trkpt>
            <trkpt lon="101.223336" lat="14.573269">
                <ele>299.107300</ele>
                <time>2007-12-16T04:44:39Z</time>
            </trkpt>
            <trkpt lon="101.223476" lat="14.573310">
                <ele>300.549316</ele>
                <time>2007-12-16T04:44:50Z</time>
            </trkpt>
            <trkpt lon="101.223541" lat="14.573352">
                <ele>300.068726</ele>
                <time>2007-12-16T04:44:59Z</time>
            </trkpt>
            <trkpt lon="101.223558" lat="14.573373">
                <ele>300.068726</ele>
                <time>2007-12-16T04:45:02Z</time>
            </trkpt>
            <trkpt lon="101.223630" lat="14.573474">
                <ele>299.588013</ele>
                <time>2007-12-16T04:45:10Z</time>
            </trkpt>
            <trkpt lon="101.223652" lat="14.573522">
                <ele>298.626709</ele>
                <time>2007-12-16T04:45:14Z</time>
            </trkpt>
            <trkpt lon="101.223643" lat="14.573585">
                <ele>299.588013</ele>
                <time>2007-12-16T04:45:19Z</time>
            </trkpt>
            <trkpt lon="101.223555" lat="14.573654">
                <ele>301.991333</ele>
                <time>2007-12-16T04:45:28Z</time>
            </trkpt>
            <trkpt lon="101.223503" lat="14.573692">
                <ele>302.471924</ele>
                <time>2007-12-16T04:45:32Z</time>
            </trkpt>
            <trkpt lon="101.223476" lat="14.573755">
                <ele>302.471924</ele>
                <time>2007-12-16T04:45:36Z</time>
            </trkpt>
            <trkpt lon="101.223500" lat="14.573815">
                <ele>301.991333</ele>
                <time>2007-12-16T04:45:40Z</time>
            </trkpt>
            <trkpt lon="101.223574" lat="14.573958">
                <ele>301.029907</ele>
                <time>2007-12-16T04:45:48Z</time>
            </trkpt>
            <trkpt lon="101.223589" lat="14.573971">
                <ele>301.029907</ele>
                <time>2007-12-16T04:45:49Z</time>
            </trkpt>
            <trkpt lon="101.223669" lat="14.574007">
                <ele>303.913940</ele>
                <time>2007-12-16T04:45:57Z</time>
            </trkpt>
            <trkpt lon="101.223664" lat="14.574030">
                <ele>302.471924</ele>
                <time>2007-12-16T04:46:02Z</time>
            </trkpt>
            <trkpt lon="101.223663" lat="14.574074">
                <ele>301.029907</ele>
                <time>2007-12-16T04:49:34Z</time>
            </trkpt>
            <trkpt lon="101.223656" lat="14.574065">
                <ele>301.029907</ele>
                <time>2007-12-16T04:50:23Z</time>
            </trkpt>
            <trkpt lon="101.223657" lat="14.574053">
                <ele>301.029907</ele>
                <time>2007-12-16T04:56:37Z</time>
            </trkpt>
            <trkpt lon="101.223668" lat="14.574056">
                <ele>301.029907</ele>
                <time>2007-12-16T04:57:58Z</time>
            </trkpt>
            <trkpt lon="101.223664" lat="14.574043">
                <ele>301.510620</ele>
                <time>2007-12-16T05:04:58Z</time>
            </trkpt>
            <trkpt lon="101.223658" lat="14.574042">
                <ele>302.952515</ele>
                <time>2007-12-16T05:12:53Z</time>
            </trkpt>
            <trkpt lon="101.223621" lat="14.574019">
                <ele>303.433228</ele>
                <time>2007-12-16T05:14:09Z</time>
            </trkpt>
            <trkpt lon="101.223613" lat="14.574017">
                <ele>302.952515</ele>
                <time>2007-12-16T05:14:17Z</time>
            </trkpt>
            <trkpt lon="101.223596" lat="14.574012">
                <ele>302.471924</ele>
                <time>2007-12-16T05:14:20Z</time>
            </trkpt>
            <trkpt lon="101.223566" lat="14.573986">
                <ele>301.029907</ele>
                <time>2007-12-16T05:14:23Z</time>
            </trkpt>
            <trkpt lon="101.223536" lat="14.573943">
                <ele>300.549316</ele>
                <time>2007-12-16T05:14:26Z</time>
            </trkpt>
            <trkpt lon="101.223504" lat="14.573931">
                <ele>301.029907</ele>
                <time>2007-12-16T05:14:29Z</time>
            </trkpt>
            <trkpt lon="101.223439" lat="14.573984">
                <ele>301.029907</ele>
                <time>2007-12-16T05:14:35Z</time>
            </trkpt>
            <trkpt lon="101.223450" lat="14.574152">
                <ele>298.626709</ele>
                <time>2007-12-16T05:14:40Z</time>
            </trkpt>
            <trkpt lon="101.223492" lat="14.574256">
                <ele>297.184692</ele>
                <time>2007-12-16T05:14:44Z</time>
            </trkpt>
            <trkpt lon="101.223518" lat="14.574299">
                <ele>295.261963</ele>
                <time>2007-12-16T05:14:46Z</time>
            </trkpt>
            <trkpt lon="101.223598" lat="14.574410">
                <ele>292.378174</ele>
                <time>2007-12-16T05:14:52Z</time>
            </trkpt>
            <trkpt lon="101.223611" lat="14.574425">
                <ele>292.378174</ele>
                <time>2007-12-16T05:14:53Z</time>
            </trkpt>
            <trkpt lon="101.223676" lat="14.574481">
                <ele>290.936157</ele>
                <time>2007-12-16T05:14:56Z</time>
            </trkpt>
            <trkpt lon="101.223863" lat="14.574549">
                <ele>286.129517</ele>
                <time>2007-12-16T05:15:00Z</time>
            </trkpt>
            <trkpt lon="101.223957" lat="14.574542">
                <ele>285.648804</ele>
                <time>2007-12-16T05:15:02Z</time>
            </trkpt>
            <trkpt lon="101.224194" lat="14.574472">
                <ele>282.284302</ele>
                <time>2007-12-16T05:15:09Z</time>
            </trkpt>
            <trkpt lon="101.224477" lat="14.574353">
                <ele>279.880859</ele>
                <time>2007-12-16T05:15:15Z</time>
            </trkpt>
            <trkpt lon="101.224532" lat="14.574334">
                <ele>279.400269</ele>
                <time>2007-12-16T05:15:16Z</time>
            </trkpt>
            <trkpt lon="101.224771" lat="14.574306">
                <ele>277.477661</ele>
                <time>2007-12-16T05:15:20Z</time>
            </trkpt>
            <trkpt lon="101.225182" lat="14.574328">
                <ele>277.958252</ele>
                <time>2007-12-16T05:15:27Z</time>
            </trkpt>
            <trkpt lon="101.225237" lat="14.574335">
                <ele>278.919678</ele>
                <time>2007-12-16T05:15:29Z</time>
            </trkpt>
            <trkpt lon="101.225511" lat="14.574377">
                <ele>278.919678</ele>
                <time>2007-12-16T05:15:37Z</time>
            </trkpt>
            <trkpt lon="101.225809" lat="14.574458">
                <ele>278.919678</ele>
                <time>2007-12-16T05:15:44Z</time>
            </trkpt>
            <trkpt lon="101.225995" lat="14.574515">
                <ele>276.997070</ele>
                <time>2007-12-16T05:15:47Z</time>
            </trkpt>
            <trkpt lon="101.226330" lat="14.574620">
                <ele>274.113037</ele>
                <time>2007-12-16T05:15:52Z</time>
            </trkpt>
            <trkpt lon="101.226920" lat="14.574779">
                <ele>273.151855</ele>
                <time>2007-12-16T05:16:01Z</time>
            </trkpt>
            <trkpt lon="101.227159" lat="14.574818">
                <ele>268.825806</ele>
                <time>2007-12-16T05:16:05Z</time>
            </trkpt>
            <trkpt lon="101.227335" lat="14.574944">
                <ele>268.825806</ele>
                <time>2007-12-16T05:16:10Z</time>
            </trkpt>
            <trkpt lon="101.227348" lat="14.574989">
                <ele>269.306519</ele>
                <time>2007-12-16T05:16:11Z</time>
            </trkpt>
            <trkpt lon="101.227404" lat="14.575380">
                <ele>267.864502</ele>
                <time>2007-12-16T05:16:18Z</time>
            </trkpt>
            <trkpt lon="101.227528" lat="14.575528">
                <ele>268.345093</ele>
                <time>2007-12-16T05:16:22Z</time>
            </trkpt>
            <trkpt lon="101.227622" lat="14.575542">
                <ele>267.383911</ele>
                <time>2007-12-16T05:16:24Z</time>
            </trkpt>
            <trkpt lon="101.227918" lat="14.575532">
                <ele>270.267700</ele>
                <time>2007-12-16T05:16:32Z</time>
            </trkpt>
            <trkpt lon="101.228069" lat="14.575440">
                <ele>271.229126</ele>
                <time>2007-12-16T05:16:40Z</time>
            </trkpt>
            <trkpt lon="101.228304" lat="14.575253">
                <ele>273.151855</ele>
                <time>2007-12-16T05:16:52Z</time>
            </trkpt>
            <trkpt lon="101.228536" lat="14.575069">
                <ele>274.593750</ele>
                <time>2007-12-16T05:17:03Z</time>
            </trkpt>
            <trkpt lon="101.228769" lat="14.574892">
                <ele>275.555054</ele>
                <time>2007-12-16T05:17:14Z</time>
            </trkpt>
            <trkpt lon="101.228915" lat="14.574881">
                <ele>275.074463</ele>
                <time>2007-12-16T05:17:21Z</time>
            </trkpt>
            <trkpt lon="101.228963" lat="14.574894">
                <ele>275.555054</ele>
                <time>2007-12-16T05:17:23Z</time>
            </trkpt>
            <trkpt lon="101.229039" lat="14.574818">
                <ele>275.555054</ele>
                <time>2007-12-16T05:17:27Z</time>
            </trkpt>
            <trkpt lon="101.229115" lat="14.574529">
                <ele>276.516357</ele>
                <time>2007-12-16T05:17:36Z</time>
            </trkpt>
            <trkpt lon="101.229265" lat="14.574257">
                <ele>277.477661</ele>
                <time>2007-12-16T05:17:45Z</time>
            </trkpt>
            <trkpt lon="101.229517" lat="14.573927">
                <ele>278.438965</ele>
                <time>2007-12-16T05:17:55Z</time>
            </trkpt>
            <trkpt lon="101.229548" lat="14.573897">
                <ele>277.958252</ele>
                <time>2007-12-16T05:17:56Z</time>
            </trkpt>
            <trkpt lon="101.229950" lat="14.573588">
                <ele>276.997070</ele>
                <time>2007-12-16T05:18:07Z</time>
            </trkpt>
            <trkpt lon="101.230166" lat="14.573306">
                <ele>277.477661</ele>
                <time>2007-12-16T05:18:14Z</time>
            </trkpt>
            <trkpt lon="101.230249" lat="14.573156">
                <ele>275.555054</ele>
                <time>2007-12-16T05:18:17Z</time>
            </trkpt>
            <trkpt lon="101.230333" lat="14.572996">
                <ele>274.113037</ele>
                <time>2007-12-16T05:18:20Z</time>
            </trkpt>
            <trkpt lon="101.230511" lat="14.572704">
                <ele>272.671143</ele>
                <time>2007-12-16T05:18:25Z</time>
            </trkpt>
            <trkpt lon="101.230727" lat="14.572240">
                <ele>270.748413</ele>
                <time>2007-12-16T05:18:31Z</time>
            </trkpt>
            <trkpt lon="101.230889" lat="14.571749">
                <ele>271.709717</ele>
                <time>2007-12-16T05:18:38Z</time>
            </trkpt>
            <trkpt lon="101.230966" lat="14.571348">
                <ele>273.151855</ele>
                <time>2007-12-16T05:18:45Z</time>
            </trkpt>
            <trkpt lon="101.230975" lat="14.571299">
                <ele>273.151855</ele>
                <time>2007-12-16T05:18:46Z</time>
            </trkpt>
            <trkpt lon="101.230971" lat="14.571010">
                <ele>274.113037</ele>
                <time>2007-12-16T05:18:52Z</time>
            </trkpt>
            <trkpt lon="101.231082" lat="14.570623">
                <ele>274.593750</ele>
                <time>2007-12-16T05:19:00Z</time>
            </trkpt>
            <trkpt lon="101.231102" lat="14.570577">
                <ele>274.593750</ele>
                <time>2007-12-16T05:19:01Z</time>
            </trkpt>
            <trkpt lon="101.231308" lat="14.570312">
                <ele>275.074463</ele>
                <time>2007-12-16T05:19:08Z</time>
            </trkpt>
            <trkpt lon="101.231342" lat="14.570283">
                <ele>276.516357</ele>
                <time>2007-12-16T05:19:09Z</time>
            </trkpt>
            <trkpt lon="101.231640" lat="14.570091">
                <ele>277.477661</ele>
                <time>2007-12-16T05:19:19Z</time>
            </trkpt>
            <trkpt lon="101.231908" lat="14.569936">
                <ele>279.400269</ele>
                <time>2007-12-16T05:19:29Z</time>
            </trkpt>
            <trkpt lon="101.232213" lat="14.569750">
                <ele>280.842407</ele>
                <time>2007-12-16T05:19:41Z</time>
            </trkpt>
            <trkpt lon="101.232471" lat="14.569500">
                <ele>280.361694</ele>
                <time>2007-12-16T05:19:52Z</time>
            </trkpt>
            <trkpt lon="101.232516" lat="14.569436">
                <ele>280.361694</ele>
                <time>2007-12-16T05:19:54Z</time>
            </trkpt>
            <trkpt lon="101.232598" lat="14.569121">
                <ele>276.516357</ele>
                <time>2007-12-16T05:20:00Z</time>
            </trkpt>
            <trkpt lon="101.232508" lat="14.568858">
                <ele>276.035645</ele>
                <time>2007-12-16T05:20:04Z</time>
            </trkpt>
            <trkpt lon="101.232235" lat="14.568626">
                <ele>275.074463</ele>
                <time>2007-12-16T05:20:09Z</time>
            </trkpt>
            <trkpt lon="101.232184" lat="14.568584">
                <ele>275.555054</ele>
                <time>2007-12-16T05:20:10Z</time>
            </trkpt>
            <trkpt lon="101.232040" lat="14.568449">
                <ele>275.555054</ele>
                <time>2007-12-16T05:20:13Z</time>
            </trkpt>
            <trkpt lon="101.231771" lat="14.568018">
                <ele>277.477661</ele>
                <time>2007-12-16T05:20:22Z</time>
            </trkpt>
            <trkpt lon="101.231654" lat="14.567579">
                <ele>277.958252</ele>
                <time>2007-12-16T05:20:31Z</time>
            </trkpt>
            <trkpt lon="101.231588" lat="14.567076">
                <ele>278.919678</ele>
                <time>2007-12-16T05:20:41Z</time>
            </trkpt>
            <trkpt lon="101.231558" lat="14.566976">
                <ele>278.919678</ele>
                <time>2007-12-16T05:20:43Z</time>
            </trkpt>
            <trkpt lon="101.231337" lat="14.566616">
                <ele>278.919678</ele>
                <time>2007-12-16T05:20:51Z</time>
            </trkpt>
            <trkpt lon="101.231292" lat="14.566308">
                <ele>280.842407</ele>
                <time>2007-12-16T05:20:57Z</time>
            </trkpt>
            <trkpt lon="101.231379" lat="14.565735">
                <ele>282.284302</ele>
                <time>2007-12-16T05:21:08Z</time>
            </trkpt>
            <trkpt lon="101.231415" lat="14.565111">
                <ele>282.284302</ele>
                <time>2007-12-16T05:21:19Z</time>
            </trkpt>
            <trkpt lon="101.231275" lat="14.564747">
                <ele>282.284302</ele>
                <time>2007-12-16T05:21:26Z</time>
            </trkpt>
            <trkpt lon="101.230972" lat="14.564313">
                <ele>282.765015</ele>
                <time>2007-12-16T05:21:36Z</time>
            </trkpt>
            <trkpt lon="101.230859" lat="14.564177">
                <ele>284.206909</ele>
                <time>2007-12-16T05:21:40Z</time>
            </trkpt>
            <trkpt lon="101.230638" lat="14.563819">
                <ele>284.206909</ele>
                <time>2007-12-16T05:21:51Z</time>
            </trkpt>
            <trkpt lon="101.230537" lat="14.563557">
                <ele>286.129517</ele>
                <time>2007-12-16T05:21:59Z</time>
            </trkpt>
            <trkpt lon="101.230388" lat="14.563127">
                <ele>287.090820</ele>
                <time>2007-12-16T05:22:11Z</time>
            </trkpt>
            <trkpt lon="101.230309" lat="14.562745">
                <ele>288.532959</ele>
                <time>2007-12-16T05:22:21Z</time>
            </trkpt>
            <trkpt lon="101.230380" lat="14.562322">
                <ele>289.974854</ele>
                <time>2007-12-16T05:22:32Z</time>
            </trkpt>
            <trkpt lon="101.230480" lat="14.561885">
                <ele>289.494141</ele>
                <time>2007-12-16T05:22:43Z</time>
            </trkpt>
            <trkpt lon="101.230682" lat="14.561487">
                <ele>289.013550</ele>
                <time>2007-12-16T05:22:53Z</time>
            </trkpt>
            <trkpt lon="101.231071" lat="14.561124">
                <ele>288.532959</ele>
                <time>2007-12-16T05:23:04Z</time>
            </trkpt>
            <trkpt lon="101.231107" lat="14.561092">
                <ele>288.532959</ele>
                <time>2007-12-16T05:23:05Z</time>
            </trkpt>
            <trkpt lon="101.231463" lat="14.560799">
                <ele>290.936157</ele>
                <time>2007-12-16T05:23:15Z</time>
            </trkpt>
            <trkpt lon="101.231869" lat="14.560548">
                <ele>290.455566</ele>
                <time>2007-12-16T05:23:25Z</time>
            </trkpt>
            <trkpt lon="101.231911" lat="14.560524">
                <ele>290.936157</ele>
                <time>2007-12-16T05:23:26Z</time>
            </trkpt>
            <trkpt lon="101.232154" lat="14.560362">
                <ele>289.974854</ele>
                <time>2007-12-16T05:23:32Z</time>
            </trkpt>
            <trkpt lon="101.232271" lat="14.560137">
                <ele>290.936157</ele>
                <time>2007-12-16T05:23:38Z</time>
            </trkpt>
            <trkpt lon="101.232272" lat="14.560053">
                <ele>291.416748</ele>
                <time>2007-12-16T05:23:40Z</time>
            </trkpt>
            <trkpt lon="101.232257" lat="14.559832">
                <ele>290.936157</ele>
                <time>2007-12-16T05:23:45Z</time>
            </trkpt>
            <trkpt lon="101.232365" lat="14.559581">
                <ele>291.897461</ele>
                <time>2007-12-16T05:23:52Z</time>
            </trkpt>
            <trkpt lon="101.232576" lat="14.559310">
                <ele>293.820068</ele>
                <time>2007-12-16T05:24:02Z</time>
            </trkpt>
            <trkpt lon="101.232718" lat="14.559117">
                <ele>295.261963</ele>
                <time>2007-12-16T05:24:10Z</time>
            </trkpt>
            <trkpt lon="101.232866" lat="14.558871">
                <ele>295.742676</ele>
                <time>2007-12-16T05:24:20Z</time>
            </trkpt>
            <trkpt lon="101.232955" lat="14.558704">
                <ele>297.665405</ele>
                <time>2007-12-16T05:24:29Z</time>
            </trkpt>
            <trkpt lon="101.233019" lat="14.558566">
                <ele>299.107300</ele>
                <time>2007-12-16T05:24:38Z</time>
            </trkpt>
            <trkpt lon="101.233084" lat="14.558415">
                <ele>300.068726</ele>
                <time>2007-12-16T05:24:47Z</time>
            </trkpt>
            <trkpt lon="101.233153" lat="14.558246">
                <ele>300.549316</ele>
                <time>2007-12-16T05:24:57Z</time>
            </trkpt>
            <trkpt lon="101.233252" lat="14.558019">
                <ele>301.510620</ele>
                <time>2007-12-16T05:25:08Z</time>
            </trkpt>
            <trkpt lon="101.233358" lat="14.557796">
                <ele>303.433228</ele>
                <time>2007-12-16T05:25:18Z</time>
            </trkpt>
            <trkpt lon="101.233467" lat="14.557537">
                <ele>304.875244</ele>
                <time>2007-12-16T05:25:29Z</time>
            </trkpt>
            <trkpt lon="101.233534" lat="14.557404">
                <ele>305.836670</ele>
                <time>2007-12-16T05:25:36Z</time>
            </trkpt>
            <trkpt lon="101.233627" lat="14.557208">
                <ele>307.759277</ele>
                <time>2007-12-16T05:25:45Z</time>
            </trkpt>
            <trkpt lon="101.233697" lat="14.556977">
                <ele>309.201172</ele>
                <time>2007-12-16T05:25:56Z</time>
            </trkpt>
            <trkpt lon="101.233780" lat="14.556806">
                <ele>307.759277</ele>
                <time>2007-12-16T05:26:02Z</time>
            </trkpt>
            <trkpt lon="101.233945" lat="14.556488">
                <ele>304.394653</ele>
                <time>2007-12-16T05:26:09Z</time>
            </trkpt>
            <trkpt lon="101.234068" lat="14.556220">
                <ele>301.029907</ele>
                <time>2007-12-16T05:26:13Z</time>
            </trkpt>
            <trkpt lon="101.234183" lat="14.555872">
                <ele>298.146118</ele>
                <time>2007-12-16T05:26:17Z</time>
            </trkpt>
            <trkpt lon="101.234330" lat="14.555303">
                <ele>298.626709</ele>
                <time>2007-12-16T05:26:24Z</time>
            </trkpt>
            <trkpt lon="101.234507" lat="14.554903">
                <ele>300.068726</ele>
                <time>2007-12-16T05:26:31Z</time>
            </trkpt>
            <trkpt lon="101.234819" lat="14.554514">
                <ele>301.029907</ele>
                <time>2007-12-16T05:26:40Z</time>
            </trkpt>
            <trkpt lon="101.235070" lat="14.554180">
                <ele>301.991333</ele>
                <time>2007-12-16T05:26:49Z</time>
            </trkpt>
            <trkpt lon="101.235326" lat="14.553729">
                <ele>304.394653</ele>
                <time>2007-12-16T05:27:01Z</time>
            </trkpt>
            <trkpt lon="101.235575" lat="14.553230">
                <ele>306.317261</ele>
                <time>2007-12-16T05:27:14Z</time>
            </trkpt>
            <trkpt lon="101.235899" lat="14.552870">
                <ele>307.278564</ele>
                <time>2007-12-16T05:27:25Z</time>
            </trkpt>
            <trkpt lon="101.236210" lat="14.552517">
                <ele>306.797852</ele>
                <time>2007-12-16T05:27:36Z</time>
            </trkpt>
            <trkpt lon="101.236543" lat="14.552071">
                <ele>308.720459</ele>
                <time>2007-12-16T05:27:50Z</time>
            </trkpt>
            <trkpt lon="101.236792" lat="14.551699">
                <ele>311.604492</ele>
                <time>2007-12-16T05:28:02Z</time>
            </trkpt>
            <trkpt lon="101.237024" lat="14.551505">
                <ele>310.643066</ele>
                <time>2007-12-16T05:28:10Z</time>
            </trkpt>
            <trkpt lon="101.237435" lat="14.551248">
                <ele>311.123779</ele>
                <time>2007-12-16T05:28:21Z</time>
            </trkpt>
            <trkpt lon="101.237740" lat="14.550961">
                <ele>310.643066</ele>
                <time>2007-12-16T05:28:30Z</time>
            </trkpt>
            <trkpt lon="101.238039" lat="14.550652">
                <ele>312.565796</ele>
                <time>2007-12-16T05:28:40Z</time>
            </trkpt>
            <trkpt lon="101.238322" lat="14.550345">
                <ele>314.007812</ele>
                <time>2007-12-16T05:28:51Z</time>
            </trkpt>
            <trkpt lon="101.238603" lat="14.550072">
                <ele>314.488403</ele>
                <time>2007-12-16T05:29:01Z</time>
            </trkpt>
            <trkpt lon="101.238905" lat="14.549798">
                <ele>314.969116</ele>
                <time>2007-12-16T05:29:11Z</time>
            </trkpt>
            <trkpt lon="101.239264" lat="14.549563">
                <ele>314.969116</ele>
                <time>2007-12-16T05:29:21Z</time>
            </trkpt>
            <trkpt lon="101.239685" lat="14.549386">
                <ele>315.930420</ele>
                <time>2007-12-16T05:29:31Z</time>
            </trkpt>
            <trkpt lon="101.239862" lat="14.549262">
                <ele>315.449829</ele>
                <time>2007-12-16T05:29:36Z</time>
            </trkpt>
            <trkpt lon="101.240019" lat="14.548962">
                <ele>315.449829</ele>
                <time>2007-12-16T05:29:44Z</time>
            </trkpt>
            <trkpt lon="101.240081" lat="14.548495">
                <ele>316.891724</ele>
                <time>2007-12-16T05:29:56Z</time>
            </trkpt>
            <trkpt lon="101.240146" lat="14.548036">
                <ele>318.814331</ele>
                <time>2007-12-16T05:30:09Z</time>
            </trkpt>
            <trkpt lon="101.240169" lat="14.547608">
                <ele>319.295044</ele>
                <time>2007-12-16T05:30:21Z</time>
            </trkpt>
            <trkpt lon="101.240136" lat="14.547210">
                <ele>318.814331</ele>
                <time>2007-12-16T05:30:32Z</time>
            </trkpt>
            <trkpt lon="101.240107" lat="14.546890">
                <ele>320.737061</ele>
                <time>2007-12-16T05:30:43Z</time>
            </trkpt>
            <trkpt lon="101.240147" lat="14.546586">
                <ele>321.698364</ele>
                <time>2007-12-16T05:30:55Z</time>
            </trkpt>
            <trkpt lon="101.240225" lat="14.546351">
                <ele>321.217773</ele>
                <time>2007-12-16T05:31:03Z</time>
            </trkpt>
            <trkpt lon="101.240366" lat="14.546070">
                <ele>320.737061</ele>
                <time>2007-12-16T05:31:12Z</time>
            </trkpt>
            <trkpt lon="101.240585" lat="14.545728">
                <ele>322.178955</ele>
                <time>2007-12-16T05:31:23Z</time>
            </trkpt>
            <trkpt lon="101.240808" lat="14.545373">
                <ele>323.140381</ele>
                <time>2007-12-16T05:31:36Z</time>
            </trkpt>
            <trkpt lon="101.241000" lat="14.545063">
                <ele>325.062988</ele>
                <time>2007-12-16T05:31:50Z</time>
            </trkpt>
            <trkpt lon="101.241039" lat="14.545001">
                <ele>326.024170</ele>
                <time>2007-12-16T05:31:53Z</time>
            </trkpt>
            <trkpt lon="101.241156" lat="14.544807">
                <ele>328.427612</ele>
                <time>2007-12-16T05:32:04Z</time>
            </trkpt>
            <trkpt lon="101.241164" lat="14.544790">
                <ele>328.908325</ele>
                <time>2007-12-16T05:32:05Z</time>
            </trkpt>
            <trkpt lon="101.241260" lat="14.544597">
                <ele>330.350220</ele>
                <time>2007-12-16T05:32:17Z</time>
            </trkpt>
            <trkpt lon="101.241313" lat="14.544393">
                <ele>332.753540</ele>
                <time>2007-12-16T05:32:29Z</time>
            </trkpt>
            <trkpt lon="101.241353" lat="14.544201">
                <ele>335.156738</ele>
                <time>2007-12-16T05:32:40Z</time>
            </trkpt>
            <trkpt lon="101.241396" lat="14.543975">
                <ele>335.637329</ele>
                <time>2007-12-16T05:32:53Z</time>
            </trkpt>
            <trkpt lon="101.241453" lat="14.543782">
                <ele>337.079468</ele>
                <time>2007-12-16T05:33:04Z</time>
            </trkpt>
            <trkpt lon="101.241568" lat="14.543592">
                <ele>336.598877</ele>
                <time>2007-12-16T05:33:11Z</time>
            </trkpt>
            <trkpt lon="101.241791" lat="14.543320">
                <ele>335.156738</ele>
                <time>2007-12-16T05:33:20Z</time>
            </trkpt>
            <trkpt lon="101.242117" lat="14.542971">
                <ele>335.637329</ele>
                <time>2007-12-16T05:33:30Z</time>
            </trkpt>
            <trkpt lon="101.242297" lat="14.542810">
                <ele>335.637329</ele>
                <time>2007-12-16T05:33:35Z</time>
            </trkpt>
            <trkpt lon="101.242602" lat="14.542695">
                <ele>334.195435</ele>
                <time>2007-12-16T05:33:41Z</time>
            </trkpt>
            <trkpt lon="101.242885" lat="14.542677">
                <ele>330.830933</ele>
                <time>2007-12-16T05:33:45Z</time>
            </trkpt>
            <trkpt lon="101.243312" lat="14.542704">
                <ele>326.985596</ele>
                <time>2007-12-16T05:33:50Z</time>
            </trkpt>
            <trkpt lon="101.243403" lat="14.542707">
                <ele>326.504883</ele>
                <time>2007-12-16T05:33:51Z</time>
            </trkpt>
            <trkpt lon="101.243494" lat="14.542709">
                <ele>327.466187</ele>
                <time>2007-12-16T05:33:52Z</time>
            </trkpt>
            <trkpt lon="101.243915" lat="14.542580">
                <ele>329.388916</ele>
                <time>2007-12-16T05:33:58Z</time>
            </trkpt>
            <trkpt lon="101.244022" lat="14.542435">
                <ele>328.427612</ele>
                <time>2007-12-16T05:34:01Z</time>
            </trkpt>
            <trkpt lon="101.244181" lat="14.542145">
                <ele>329.869507</ele>
                <time>2007-12-16T05:34:07Z</time>
            </trkpt>
            <trkpt lon="101.244458" lat="14.541805">
                <ele>330.350220</ele>
                <time>2007-12-16T05:34:16Z</time>
            </trkpt>
            <trkpt lon="101.244755" lat="14.541505">
                <ele>331.311523</ele>
                <time>2007-12-16T05:34:26Z</time>
            </trkpt>
            <trkpt lon="101.245015" lat="14.541177">
                <ele>331.792114</ele>
                <time>2007-12-16T05:34:37Z</time>
            </trkpt>
            <trkpt lon="101.245152" lat="14.540825">
                <ele>332.753540</ele>
                <time>2007-12-16T05:34:47Z</time>
            </trkpt>
            <trkpt lon="101.245274" lat="14.540497">
                <ele>333.714722</ele>
                <time>2007-12-16T05:34:57Z</time>
            </trkpt>
            <trkpt lon="101.245394" lat="14.540473">
                <ele>333.714722</ele>
                <time>2007-12-16T05:35:01Z</time>
            </trkpt>
            <trkpt lon="101.245489" lat="14.540509">
                <ele>335.156738</ele>
                <time>2007-12-16T05:35:06Z</time>
            </trkpt>
            <trkpt lon="101.245497" lat="14.540518">
                <ele>334.676147</ele>
                <time>2007-12-16T05:35:23Z</time>
            </trkpt>
            <trkpt lon="101.245507" lat="14.540514">
                <ele>334.195435</ele>
                <time>2007-12-16T05:35:29Z</time>
            </trkpt>
            <trkpt lon="101.245511" lat="14.540526">
                <ele>334.195435</ele>
                <time>2007-12-16T05:35:41Z</time>
            </trkpt>
            <trkpt lon="101.245509" lat="14.540527">
                <ele>333.714722</ele>
                <time>2007-12-16T05:35:50Z</time>
            </trkpt>
            <trkpt lon="101.245520" lat="14.540529">
                <ele>337.560059</ele>
                <time>2007-12-16T05:35:57Z</time>
            </trkpt>
            <trkpt lon="101.245523" lat="14.540529">
                <ele>334.195435</ele>
                <time>2007-12-16T05:35:59Z</time>
            </trkpt>
            <trkpt lon="101.245530" lat="14.540530">
                <ele>333.234131</ele>
                <time>2007-12-16T05:36:03Z</time>
            </trkpt>
        </trkseg>
    </trk>
</gpx>